<?xml version="1.0" encoding="UTF-8" standalone="no" ?>
<gpx xmlns="http://www.topografix.com/GPX/1/1" xmlns:xsi="http://www.w3.org/2001/XMLSchema-instance" xsi:schemaLocation="http://www.topografix.com/GPX/1/1 http://www.topografix.com/GPX/1/1/gpx.xsd" version="1.1" creator="VisuGPX - https://www.visugpx.com">
  <metadata>
    <name>hasnon 50 km</name>
  </metadata>
  <trk>
    <name><![CDATA[hasnon 50 km]]></name>
    <trkseg>
      <trkpt lat="50.50361" lon="3.46454">
        <ele>20.89163</ele>
        <time>2020-06-01T15:23:41.347Z</time>
      </trkpt>
      <trkpt lat="50.50361" lon="3.46454">
        <ele>20.89163</ele>
        <time>2020-06-01T15:23:41.352Z</time>
      </trkpt>
      <trkpt lat="50.5034" lon="3.46438">
        <ele>20.89163</ele>
        <time>2020-06-01T15:23:44.907Z</time>
      </trkpt>
      <trkpt lat="50.50316" lon="3.46422">
        <ele>20.89163</ele>
        <time>2020-06-01T15:23:48.881Z</time>
      </trkpt>
      <trkpt lat="50.50313" lon="3.46411">
        <ele>20.89163</ele>
        <time>2020-06-01T15:23:49.959Z</time>
      </trkpt>
      <trkpt lat="50.50317" lon="3.46374">
        <ele>20.89163</ele>
        <time>2020-06-01T15:23:53.467Z</time>
      </trkpt>
      <trkpt lat="50.50325" lon="3.46304">
        <ele>20.800165</ele>
        <time>2020-06-01T15:23:59.888Z</time>
      </trkpt>
      <trkpt lat="50.50335" lon="3.46236">
        <ele>20.687575</ele>
        <time>2020-06-01T15:24:06.172Z</time>
      </trkpt>
      <trkpt lat="50.50345" lon="3.46155">
        <ele>20.555786</ele>
        <time>2020-06-01T15:24:13.549Z</time>
      </trkpt>
      <trkpt lat="50.50361" lon="3.46074">
        <ele>20.406292</ele>
        <time>2020-06-01T15:24:20.822Z</time>
      </trkpt>
      <trkpt lat="50.5041" lon="3.45851">
        <ele>19.732277</ele>
        <time>2020-06-01T15:24:40.870Z</time>
      </trkpt>
      <trkpt lat="50.50424" lon="3.45772">
        <ele>19.49883</ele>
        <time>2020-06-01T15:24:47.929Z</time>
      </trkpt>
      <trkpt lat="50.50433" lon="3.4572">
        <ele>19.344314</ele>
        <time>2020-06-01T15:24:52.622Z</time>
      </trkpt>
      <trkpt lat="50.50436" lon="3.45642">
        <ele>19.123279</ele>
        <time>2020-06-01T15:24:59.405Z</time>
      </trkpt>
      <trkpt lat="50.50437" lon="3.45631">
        <ele>19.091849</ele>
        <time>2020-06-01T15:25:00.239Z</time>
      </trkpt>
      <trkpt lat="50.5044" lon="3.45588">
        <ele>18.96757</ele>
        <time>2020-06-01T15:25:04.198Z</time>
      </trkpt>
      <trkpt lat="50.50441" lon="3.45573">
        <ele>18.923785</ele>
        <time>2020-06-01T15:25:05.392Z</time>
      </trkpt>
      <trkpt lat="50.50441" lon="3.45568">
        <ele>18.909156</ele>
        <time>2020-06-01T15:25:05.836Z</time>
      </trkpt>
      <trkpt lat="50.50443" lon="3.45552">
        <ele>18.86262</ele>
        <time>2020-06-01T15:25:07.267Z</time>
      </trkpt>
      <trkpt lat="50.50448" lon="3.45508">
        <ele>18.716916</ele>
        <time>2020-06-01T15:25:10.818Z</time>
      </trkpt>
      <trkpt lat="50.50447" lon="3.4549">
        <ele>18.652094</ele>
        <time>2020-06-01T15:25:12.403Z</time>
      </trkpt>
      <trkpt lat="50.50444" lon="3.45482">
        <ele>18.61901</ele>
        <time>2020-06-01T15:25:13.208Z</time>
      </trkpt>
      <trkpt lat="50.50416" lon="3.45464">
        <ele>18.45552</ele>
        <time>2020-06-01T15:25:17.084Z</time>
      </trkpt>
      <trkpt lat="50.50407" lon="3.45459">
        <ele>18.400704</ele>
        <time>2020-06-01T15:25:18.413Z</time>
      </trkpt>
      <trkpt lat="50.50355" lon="3.45425">
        <ele>18.092979</ele>
        <time>2020-06-01T15:25:25.895Z</time>
      </trkpt>
      <trkpt lat="50.50341" lon="3.45413">
        <ele>18.005079</ele>
        <time>2020-06-01T15:25:28.072Z</time>
      </trkpt>
      <trkpt lat="50.5031" lon="3.45386">
        <ele>17.824962</ele>
        <time>2020-06-01T15:25:32.732Z</time>
      </trkpt>
      <trkpt lat="50.50229" lon="3.45322">
        <ele>17.578575</ele>
        <time>2020-06-01T15:25:44.175Z</time>
      </trkpt>
      <trkpt lat="50.50193" lon="3.45294">
        <ele>17.471649</ele>
        <time>2020-06-01T15:25:50.186Z</time>
      </trkpt>
      <trkpt lat="50.50142" lon="3.45258">
        <ele>17.379388</ele>
        <time>2020-06-01T15:25:59.468Z</time>
      </trkpt>
      <trkpt lat="50.5013" lon="3.45249">
        <ele>17.409646</ele>
        <time>2020-06-01T15:26:01.485Z</time>
      </trkpt>
      <trkpt lat="50.50092" lon="3.45227">
        <ele>17.501511</ele>
        <time>2020-06-01T15:26:07.993Z</time>
      </trkpt>
      <trkpt lat="50.50084" lon="3.45223">
        <ele>17.520905</ele>
        <time>2020-06-01T15:26:09.313Z</time>
      </trkpt>
      <trkpt lat="50.50052" lon="3.45203">
        <ele>17.600075</ele>
        <time>2020-06-01T15:26:14.329Z</time>
      </trkpt>
      <trkpt lat="50.50051" lon="3.45202">
        <ele>17.603878</ele>
        <time>2020-06-01T15:26:14.592Z</time>
      </trkpt>
      <trkpt lat="50.50044" lon="3.45199">
        <ele>17.619955</ele>
        <time>2020-06-01T15:26:15.678Z</time>
      </trkpt>
      <trkpt lat="50.50005" lon="3.45189">
        <ele>17.710616</ele>
        <time>2020-06-01T15:26:21.880Z</time>
      </trkpt>
      <trkpt lat="50.49999" lon="3.45188">
        <ele>17.725186</ele>
        <time>2020-06-01T15:26:22.833Z</time>
      </trkpt>
      <trkpt lat="50.49974" lon="3.45177">
        <ele>17.767028</ele>
        <time>2020-06-01T15:26:27.252Z</time>
      </trkpt>
      <trkpt lat="50.49958" lon="3.45159">
        <ele>17.774781</ele>
        <time>2020-06-01T15:26:30.608Z</time>
      </trkpt>
      <trkpt lat="50.49943" lon="3.45125">
        <ele>17.78487</ele>
        <time>2020-06-01T15:26:34.897Z</time>
      </trkpt>
      <trkpt lat="50.49935" lon="3.45106">
        <ele>17.790651</ele>
        <time>2020-06-01T15:26:37.133Z</time>
      </trkpt>
      <trkpt lat="50.49924" lon="3.45113">
        <ele>17.79531</ele>
        <time>2020-06-01T15:26:38.999Z</time>
      </trkpt>
      <trkpt lat="50.49912" lon="3.45121">
        <ele>17.800043</ele>
        <time>2020-06-01T15:26:40.642Z</time>
      </trkpt>
      <trkpt lat="50.49899" lon="3.45131">
        <ele>17.805885</ele>
        <time>2020-06-01T15:26:42.684Z</time>
      </trkpt>
      <trkpt lat="50.49885" lon="3.4514">
        <ele>17.811628</ele>
        <time>2020-06-01T15:26:44.756Z</time>
      </trkpt>
      <trkpt lat="50.49879" lon="3.45144">
        <ele>17.813944</ele>
        <time>2020-06-01T15:26:45.524Z</time>
      </trkpt>
      <trkpt lat="50.49811" lon="3.4518">
        <ele>17.87573</ele>
        <time>2020-06-01T15:26:55.538Z</time>
      </trkpt>
      <trkpt lat="50.49723" lon="3.45207">
        <ele>18.05374</ele>
        <time>2020-06-01T15:27:10.105Z</time>
      </trkpt>
      <trkpt lat="50.49648" lon="3.45244">
        <ele>18.203828</ele>
        <time>2020-06-01T15:27:22.651Z</time>
      </trkpt>
      <trkpt lat="50.49624" lon="3.45256">
        <ele>18.239684</ele>
        <time>2020-06-01T15:27:28.051Z</time>
      </trkpt>
      <trkpt lat="50.49592" lon="3.45277">
        <ele>18.288686</ele>
        <time>2020-06-01T15:27:35.546Z</time>
      </trkpt>
      <trkpt lat="50.49561" lon="3.45307">
        <ele>18.341331</ele>
        <time>2020-06-01T15:27:43.443Z</time>
      </trkpt>
      <trkpt lat="50.4954" lon="3.45338">
        <ele>18.382369</ele>
        <time>2020-06-01T15:27:49.216Z</time>
      </trkpt>
      <trkpt lat="50.49517" lon="3.4538">
        <ele>18.431891</ele>
        <time>2020-06-01T15:27:55.998Z</time>
      </trkpt>
      <trkpt lat="50.49498" lon="3.45423">
        <ele>18.533791</ele>
        <time>2020-06-01T15:28:02.558Z</time>
      </trkpt>
      <trkpt lat="50.4949" lon="3.45459">
        <ele>18.623447</ele>
        <time>2020-06-01T15:28:07.543Z</time>
      </trkpt>
      <trkpt lat="50.49463" lon="3.45576">
        <ele>18.919821</ele>
        <time>2020-06-01T15:28:24.625Z</time>
      </trkpt>
      <trkpt lat="50.49409" lon="3.45833">
        <ele>19.954307</ele>
        <time>2020-06-01T15:29:05.567Z</time>
      </trkpt>
      <trkpt lat="50.49394" lon="3.45893">
        <ele>20.243968</ele>
        <time>2020-06-01T15:29:15.136Z</time>
      </trkpt>
      <trkpt lat="50.49387" lon="3.45927">
        <ele>20.353082</ele>
        <time>2020-06-01T15:29:20.296Z</time>
      </trkpt>
      <trkpt lat="50.49375" lon="3.45959">
        <ele>20.180532</ele>
        <time>2020-06-01T15:29:25.178Z</time>
      </trkpt>
      <trkpt lat="50.49302" lon="3.46091">
        <ele>19.369739</ele>
        <time>2020-06-01T15:29:45.407Z</time>
      </trkpt>
      <trkpt lat="50.49258" lon="3.4619">
        <ele>18.495761</ele>
        <time>2020-06-01T15:29:57.779Z</time>
      </trkpt>
      <trkpt lat="50.49198" lon="3.463">
        <ele>17.027785</ele>
        <time>2020-06-01T15:30:12.440Z</time>
      </trkpt>
      <trkpt lat="50.4911" lon="3.46408">
        <ele>15.907726</ele>
        <time>2020-06-01T15:30:31.281Z</time>
      </trkpt>
      <trkpt lat="50.49052" lon="3.46461">
        <ele>15.592542</ele>
        <time>2020-06-01T15:30:43.766Z</time>
      </trkpt>
      <trkpt lat="50.48946" lon="3.46572">
        <ele>15.671772</ele>
        <time>2020-06-01T15:31:11.547Z</time>
      </trkpt>
      <trkpt lat="50.48919" lon="3.46599">
        <ele>15.81521</ele>
        <time>2020-06-01T15:31:18.769Z</time>
      </trkpt>
      <trkpt lat="50.4891" lon="3.46609">
        <ele>15.862631</ele>
        <time>2020-06-01T15:31:21.338Z</time>
      </trkpt>
      <trkpt lat="50.48892" lon="3.46634">
        <ele>15.969813</ele>
        <time>2020-06-01T15:31:26.599Z</time>
      </trkpt>
      <trkpt lat="50.48873" lon="3.46674">
        <ele>16.113592</ele>
        <time>2020-06-01T15:31:33.917Z</time>
      </trkpt>
      <trkpt lat="50.4887" lon="3.46679">
        <ele>16.133815</ele>
        <time>2020-06-01T15:31:34.540Z</time>
      </trkpt>
      <trkpt lat="50.48807" lon="3.46816">
        <ele>16.603651</ele>
        <time>2020-06-01T15:31:53.050Z</time>
      </trkpt>
      <trkpt lat="50.488" lon="3.46856">
        <ele>16.719805</ele>
        <time>2020-06-01T15:31:57.269Z</time>
      </trkpt>
      <trkpt lat="50.48795" lon="3.4691">
        <ele>16.872199</ele>
        <time>2020-06-01T15:32:02.626Z</time>
      </trkpt>
      <trkpt lat="50.48793" lon="3.46933">
        <ele>16.934195</ele>
        <time>2020-06-01T15:32:05.153Z</time>
      </trkpt>
      <trkpt lat="50.48757" lon="3.47361">
        <ele>17.273847</ele>
        <time>2020-06-01T15:32:46.979Z</time>
      </trkpt>
      <trkpt lat="50.48743" lon="3.4748">
        <ele>17.389642</ele>
        <time>2020-06-01T15:32:58.979Z</time>
      </trkpt>
      <trkpt lat="50.48742" lon="3.47483">
        <ele>17.392387</ele>
        <time>2020-06-01T15:32:59.299Z</time>
      </trkpt>
      <trkpt lat="50.48729" lon="3.47551">
        <ele>17.483566</ele>
        <time>2020-06-01T15:33:06.472Z</time>
      </trkpt>
      <trkpt lat="50.4872" lon="3.47579">
        <ele>17.524888</ele>
        <time>2020-06-01T15:33:09.635Z</time>
      </trkpt>
      <trkpt lat="50.48711" lon="3.47619">
        <ele>17.581744</ele>
        <time>2020-06-01T15:33:13.873Z</time>
      </trkpt>
      <trkpt lat="50.48701" lon="3.47672">
        <ele>17.654302</ele>
        <time>2020-06-01T15:33:19.323Z</time>
      </trkpt>
      <trkpt lat="50.48689" lon="3.47737">
        <ele>17.744655</ele>
        <time>2020-06-01T15:33:26.275Z</time>
      </trkpt>
      <trkpt lat="50.48683" lon="3.47766">
        <ele>17.774262</ele>
        <time>2020-06-01T15:33:29.171Z</time>
      </trkpt>
      <trkpt lat="50.48676" lon="3.47786">
        <ele>17.771013</ele>
        <time>2020-06-01T15:33:31.639Z</time>
      </trkpt>
      <trkpt lat="50.48665" lon="3.47798">
        <ele>17.76815</ele>
        <time>2020-06-01T15:33:33.664Z</time>
      </trkpt>
      <trkpt lat="50.48564" lon="3.47844">
        <ele>17.745358</ele>
        <time>2020-06-01T15:33:49.083Z</time>
      </trkpt>
      <trkpt lat="50.4856" lon="3.47846">
        <ele>17.744305</ele>
        <time>2020-06-01T15:33:49.740Z</time>
      </trkpt>
      <trkpt lat="50.485" lon="3.47882">
        <ele>17.683285</ele>
        <time>2020-06-01T15:33:58.829Z</time>
      </trkpt>
      <trkpt lat="50.48439" lon="3.47931">
        <ele>17.545897</ele>
        <time>2020-06-01T15:34:08.559Z</time>
      </trkpt>
      <trkpt lat="50.48424" lon="3.4796">
        <ele>17.496329</ele>
        <time>2020-06-01T15:34:12.026Z</time>
      </trkpt>
      <trkpt lat="50.48417" lon="3.47979">
        <ele>17.468427</ele>
        <time>2020-06-01T15:34:13.955Z</time>
      </trkpt>
      <trkpt lat="50.48412" lon="3.48004">
        <ele>17.434778</ele>
        <time>2020-06-01T15:34:16.259Z</time>
      </trkpt>
      <trkpt lat="50.48408" lon="3.48038">
        <ele>17.391164</ele>
        <time>2020-06-01T15:34:19.256Z</time>
      </trkpt>
      <trkpt lat="50.48413" lon="3.48125">
        <ele>17.238492</ele>
        <time>2020-06-01T15:34:26.933Z</time>
      </trkpt>
      <trkpt lat="50.48414" lon="3.48159">
        <ele>17.175438</ele>
        <time>2020-06-01T15:34:29.943Z</time>
      </trkpt>
      <trkpt lat="50.48416" lon="3.48188">
        <ele>17.12257</ele>
        <time>2020-06-01T15:34:32.457Z</time>
      </trkpt>
      <trkpt lat="50.48419" lon="3.48244">
        <ele>17.019602</ele>
        <time>2020-06-01T15:34:37.293Z</time>
      </trkpt>
      <trkpt lat="50.48425" lon="3.48416">
        <ele>16.997482</ele>
        <time>2020-06-01T15:34:52.710Z</time>
      </trkpt>
      <trkpt lat="50.48425" lon="3.48435">
        <ele>17.030542</ele>
        <time>2020-06-01T15:34:54.481Z</time>
      </trkpt>
      <trkpt lat="50.48424" lon="3.48468">
        <ele>17.088137</ele>
        <time>2020-06-01T15:34:57.792Z</time>
      </trkpt>
      <trkpt lat="50.48421" lon="3.48496">
        <ele>17.138445</ele>
        <time>2020-06-01T15:35:00.682Z</time>
      </trkpt>
      <trkpt lat="50.48409" lon="3.48525">
        <ele>17.197908</ele>
        <time>2020-06-01T15:35:04.324Z</time>
      </trkpt>
      <trkpt lat="50.48377" lon="3.48595">
        <ele>17.353462</ele>
        <time>2020-06-01T15:35:13.683Z</time>
      </trkpt>
      <trkpt lat="50.48321" lon="3.4869">
        <ele>18.273195</ele>
        <time>2020-06-01T15:35:30.072Z</time>
      </trkpt>
      <trkpt lat="50.48239" lon="3.4873">
        <ele>19.227108</ele>
        <time>2020-06-01T15:35:47.063Z</time>
      </trkpt>
      <trkpt lat="50.48233" lon="3.48733">
        <ele>19.303195</ele>
        <time>2020-06-01T15:35:48.704Z</time>
      </trkpt>
      <trkpt lat="50.48225" lon="3.48736">
        <ele>19.373398</ele>
        <time>2020-06-01T15:35:50.173Z</time>
      </trkpt>
      <trkpt lat="50.48212" lon="3.48742">
        <ele>19.469677</ele>
        <time>2020-06-01T15:35:52.471Z</time>
      </trkpt>
      <trkpt lat="50.48203" lon="3.48748">
        <ele>19.544317</ele>
        <time>2020-06-01T15:35:54.602Z</time>
      </trkpt>
      <trkpt lat="50.48198" lon="3.48751">
        <ele>19.5828</ele>
        <time>2020-06-01T15:35:55.740Z</time>
      </trkpt>
      <trkpt lat="50.48039" lon="3.49011">
        <ele>21.211912</ele>
        <time>2020-06-01T15:36:34.924Z</time>
      </trkpt>
      <trkpt lat="50.47702" lon="3.49428">
        <ele>24.135785</ele>
        <time>2020-06-01T15:37:51.364Z</time>
      </trkpt>
      <trkpt lat="50.47524" lon="3.49696">
        <ele>25.197732</ele>
        <time>2020-06-01T15:38:30.455Z</time>
      </trkpt>
      <trkpt lat="50.47513" lon="3.49711">
        <ele>25.330045</ele>
        <time>2020-06-01T15:38:32.943Z</time>
      </trkpt>
      <trkpt lat="50.47428" lon="3.49563">
        <ele>26.463636</ele>
        <time>2020-06-01T15:38:57.473Z</time>
      </trkpt>
      <trkpt lat="50.47402" lon="3.49433">
        <ele>27.392105</ele>
        <time>2020-06-01T15:39:15.165Z</time>
      </trkpt>
      <trkpt lat="50.47379" lon="3.49359">
        <ele>27.955049</ele>
        <time>2020-06-01T15:39:25.283Z</time>
      </trkpt>
      <trkpt lat="50.47357" lon="3.49311">
        <ele>28.359758</ele>
        <time>2020-06-01T15:39:32.148Z</time>
      </trkpt>
      <trkpt lat="50.47221" lon="3.49078">
        <ele>29.070809</ele>
        <time>2020-06-01T15:40:04.781Z</time>
      </trkpt>
      <trkpt lat="50.47137" lon="3.48949">
        <ele>29.046561</ele>
        <time>2020-06-01T15:40:22.055Z</time>
      </trkpt>
      <trkpt lat="50.47137" lon="3.48949">
        <ele>29.046561</ele>
        <time>2020-06-01T15:40:22.057Z</time>
      </trkpt>
      <trkpt lat="50.47109" lon="3.48894">
        <ele>29.03606</ele>
        <time>2020-06-01T15:40:28.352Z</time>
      </trkpt>
      <trkpt lat="50.47106" lon="3.48875">
        <ele>29.004428</ele>
        <time>2020-06-01T15:40:30.105Z</time>
      </trkpt>
      <trkpt lat="50.47116" lon="3.48844">
        <ele>28.947307</ele>
        <time>2020-06-01T15:40:33.214Z</time>
      </trkpt>
      <trkpt lat="50.47148" lon="3.48805">
        <ele>28.84419</ele>
        <time>2020-06-01T15:40:38.795Z</time>
      </trkpt>
      <trkpt lat="50.47163" lon="3.48767">
        <ele>28.771023</ele>
        <time>2020-06-01T15:40:42.724Z</time>
      </trkpt>
      <trkpt lat="50.47158" lon="3.48746">
        <ele>28.733316</ele>
        <time>2020-06-01T15:40:44.748Z</time>
      </trkpt>
      <trkpt lat="50.47145" lon="3.48721">
        <ele>28.680659</ele>
        <time>2020-06-01T15:40:47.586Z</time>
      </trkpt>
      <trkpt lat="50.47068" lon="3.48628">
        <ele>28.363334</ele>
        <time>2020-06-01T15:41:01.186Z</time>
      </trkpt>
      <trkpt lat="50.47048" lon="3.48605">
        <ele>28.272767</ele>
        <time>2020-06-01T15:41:04.600Z</time>
      </trkpt>
      <trkpt lat="50.47025" lon="3.48575">
        <ele>28.159541</ele>
        <time>2020-06-01T15:41:08.921Z</time>
      </trkpt>
      <trkpt lat="50.46952" lon="3.48448">
        <ele>27.575026</ele>
        <time>2020-06-01T15:41:23.165Z</time>
      </trkpt>
      <trkpt lat="50.46935" lon="3.48395">
        <ele>27.266745</ele>
        <time>2020-06-01T15:41:27.932Z</time>
      </trkpt>
      <trkpt lat="50.46907" lon="3.48316">
        <ele>26.800646</ele>
        <time>2020-06-01T15:41:35.127Z</time>
      </trkpt>
      <trkpt lat="50.46898" lon="3.48284">
        <ele>26.619912</ele>
        <time>2020-06-01T15:41:37.828Z</time>
      </trkpt>
      <trkpt lat="50.46896" lon="3.4827">
        <ele>26.542957</ele>
        <time>2020-06-01T15:41:39.001Z</time>
      </trkpt>
      <trkpt lat="50.46895" lon="3.48256">
        <ele>26.469624</ele>
        <time>2020-06-01T15:41:40.153Z</time>
      </trkpt>
      <trkpt lat="50.46896" lon="3.48242">
        <ele>26.393946</ele>
        <time>2020-06-01T15:41:41.202Z</time>
      </trkpt>
      <trkpt lat="50.46883" lon="3.48246">
        <ele>26.277973</ele>
        <time>2020-06-01T15:41:42.747Z</time>
      </trkpt>
      <trkpt lat="50.4688" lon="3.48246">
        <ele>26.253708</ele>
        <time>2020-06-01T15:41:43.082Z</time>
      </trkpt>
      <trkpt lat="50.46873" lon="3.48247">
        <ele>26.189965</ele>
        <time>2020-06-01T15:41:43.984Z</time>
      </trkpt>
      <trkpt lat="50.46852" lon="3.48266">
        <ele>25.969564</ele>
        <time>2020-06-01T15:41:46.895Z</time>
      </trkpt>
      <trkpt lat="50.46818" lon="3.48313">
        <ele>25.565817</ele>
        <time>2020-06-01T15:41:52.311Z</time>
      </trkpt>
      <trkpt lat="50.46627" lon="3.48616">
        <ele>23.630233</ele>
        <time>2020-06-01T15:42:27.231Z</time>
      </trkpt>
      <trkpt lat="50.46359" lon="3.48976">
        <ele>22.928799</ele>
        <time>2020-06-01T15:43:17.206Z</time>
      </trkpt>
      <trkpt lat="50.463" lon="3.49078">
        <ele>23.255933</ele>
        <time>2020-06-01T15:43:31.154Z</time>
      </trkpt>
      <trkpt lat="50.46244" lon="3.49201">
        <ele>23.632881</ele>
        <time>2020-06-01T15:43:47.377Z</time>
      </trkpt>
      <trkpt lat="50.46123" lon="3.4931">
        <ele>24.538224</ele>
        <time>2020-06-01T15:44:11.851Z</time>
      </trkpt>
      <trkpt lat="50.46053" lon="3.49408">
        <ele>25.118578</ele>
        <time>2020-06-01T15:44:28.556Z</time>
      </trkpt>
      <trkpt lat="50.46005" lon="3.49475">
        <ele>25.504425</ele>
        <time>2020-06-01T15:44:39.515Z</time>
      </trkpt>
      <trkpt lat="50.45997" lon="3.49488">
        <ele>25.573204</ele>
        <time>2020-06-01T15:44:41.583Z</time>
      </trkpt>
      <trkpt lat="50.45995" lon="3.49494">
        <ele>25.599013</ele>
        <time>2020-06-01T15:44:42.294Z</time>
      </trkpt>
      <trkpt lat="50.45992" lon="3.49497">
        <ele>25.619843</ele>
        <time>2020-06-01T15:44:42.861Z</time>
      </trkpt>
      <trkpt lat="50.4599" lon="3.49496">
        <ele>25.62878</ele>
        <time>2020-06-01T15:44:43.080Z</time>
      </trkpt>
      <trkpt lat="50.45989" lon="3.49496">
        <ele>25.637213</ele>
        <time>2020-06-01T15:44:43.299Z</time>
      </trkpt>
      <trkpt lat="50.45987" lon="3.49496">
        <ele>25.646999</ele>
        <time>2020-06-01T15:44:43.560Z</time>
      </trkpt>
      <trkpt lat="50.45986" lon="3.49497">
        <ele>25.656955</ele>
        <time>2020-06-01T15:44:43.829Z</time>
      </trkpt>
      <trkpt lat="50.45985" lon="3.495">
        <ele>25.66697</ele>
        <time>2020-06-01T15:44:44.098Z</time>
      </trkpt>
      <trkpt lat="50.45984" lon="3.49502">
        <ele>25.676252</ele>
        <time>2020-06-01T15:44:44.364Z</time>
      </trkpt>
      <trkpt lat="50.45984" lon="3.49504">
        <ele>25.685417</ele>
        <time>2020-06-01T15:44:44.617Z</time>
      </trkpt>
      <trkpt lat="50.45985" lon="3.49507">
        <ele>25.694523</ele>
        <time>2020-06-01T15:44:44.893Z</time>
      </trkpt>
      <trkpt lat="50.45986" lon="3.49509">
        <ele>25.704235</ele>
        <time>2020-06-01T15:44:45.163Z</time>
      </trkpt>
      <trkpt lat="50.45987" lon="3.4951">
        <ele>25.713202</ele>
        <time>2020-06-01T15:44:45.434Z</time>
      </trkpt>
      <trkpt lat="50.45989" lon="3.49518">
        <ele>25.748016</ele>
        <time>2020-06-01T15:44:46.483Z</time>
      </trkpt>
      <trkpt lat="50.45991" lon="3.49526">
        <ele>25.77914</ele>
        <time>2020-06-01T15:44:47.420Z</time>
      </trkpt>
      <trkpt lat="50.46009" lon="3.49667">
        <ele>26.198538</ele>
        <time>2020-06-01T15:45:02.653Z</time>
      </trkpt>
      <trkpt lat="50.46016" lon="3.49739">
        <ele>26.402901</ele>
        <time>2020-06-01T15:45:10.480Z</time>
      </trkpt>
      <trkpt lat="50.46013" lon="3.49779">
        <ele>26.518092</ele>
        <time>2020-06-01T15:45:14.786Z</time>
      </trkpt>
      <trkpt lat="50.45955" lon="3.50033">
        <ele>26.913366</ele>
        <time>2020-06-01T15:45:41.829Z</time>
      </trkpt>
      <trkpt lat="50.45941" lon="3.50087">
        <ele>26.98394</ele>
        <time>2020-06-01T15:45:47.339Z</time>
      </trkpt>
      <trkpt lat="50.4589" lon="3.50312">
        <ele>27.187255</ele>
        <time>2020-06-01T15:46:09.989Z</time>
      </trkpt>
      <trkpt lat="50.4577" lon="3.5083">
        <ele>28.859181</ele>
        <time>2020-06-01T15:47:10.622Z</time>
      </trkpt>
      <trkpt lat="50.45749" lon="3.50921">
        <ele>28.912722</ele>
        <time>2020-06-01T15:47:19.844Z</time>
      </trkpt>
      <trkpt lat="50.4572" lon="3.51037">
        <ele>28.639458</ele>
        <time>2020-06-01T15:47:30.703Z</time>
      </trkpt>
      <trkpt lat="50.45666" lon="3.51274">
        <ele>27.894858</ele>
        <time>2020-06-01T15:47:51.584Z</time>
      </trkpt>
      <trkpt lat="50.45649" lon="3.51328">
        <ele>27.677599</ele>
        <time>2020-06-01T15:47:56.699Z</time>
      </trkpt>
      <trkpt lat="50.45626" lon="3.51375">
        <ele>27.461186</ele>
        <time>2020-06-01T15:48:01.726Z</time>
      </trkpt>
      <trkpt lat="50.45601" lon="3.51427">
        <ele>27.165499</ele>
        <time>2020-06-01T15:48:07.150Z</time>
      </trkpt>
      <trkpt lat="50.45583" lon="3.51477">
        <ele>26.863775</ele>
        <time>2020-06-01T15:48:11.928Z</time>
      </trkpt>
      <trkpt lat="50.45569" lon="3.51518">
        <ele>26.622462</ele>
        <time>2020-06-01T15:48:15.664Z</time>
      </trkpt>
      <trkpt lat="50.4553" lon="3.5162">
        <ele>26.001524</ele>
        <time>2020-06-01T15:48:25.149Z</time>
      </trkpt>
      <trkpt lat="50.45485" lon="3.51712">
        <ele>25.088415</ele>
        <time>2020-06-01T15:48:33.973Z</time>
      </trkpt>
      <trkpt lat="50.45478" lon="3.51791">
        <ele>24.4209</ele>
        <time>2020-06-01T15:48:39.976Z</time>
      </trkpt>
      <trkpt lat="50.45466" lon="3.51901">
        <ele>23.478278</ele>
        <time>2020-06-01T15:48:48.153Z</time>
      </trkpt>
      <trkpt lat="50.45462" lon="3.51929">
        <ele>23.200992</ele>
        <time>2020-06-01T15:48:50.271Z</time>
      </trkpt>
      <trkpt lat="50.45457" lon="3.51957">
        <ele>22.932057</ele>
        <time>2020-06-01T15:48:52.344Z</time>
      </trkpt>
      <trkpt lat="50.45453" lon="3.51955">
        <ele>22.88123</ele>
        <time>2020-06-01T15:48:52.896Z</time>
      </trkpt>
      <trkpt lat="50.45427" lon="3.52007">
        <ele>22.260658</ele>
        <time>2020-06-01T15:48:59.699Z</time>
      </trkpt>
      <trkpt lat="50.45429" lon="3.52011">
        <ele>22.213242</ele>
        <time>2020-06-01T15:49:00.195Z</time>
      </trkpt>
      <trkpt lat="50.45404" lon="3.52042">
        <ele>21.742519</ele>
        <time>2020-06-01T15:49:05.349Z</time>
      </trkpt>
      <trkpt lat="50.45298" lon="3.5221">
        <ele>20.474757</ele>
        <time>2020-06-01T15:49:30.741Z</time>
      </trkpt>
      <trkpt lat="50.45268" lon="3.52254">
        <ele>20.304441</ele>
        <time>2020-06-01T15:49:39.064Z</time>
      </trkpt>
      <trkpt lat="50.45198" lon="3.52351">
        <ele>20.39703</ele>
        <time>2020-06-01T15:50:01.110Z</time>
      </trkpt>
      <trkpt lat="50.45145" lon="3.52424">
        <ele>20.854736</ele>
        <time>2020-06-01T15:50:17.507Z</time>
      </trkpt>
      <trkpt lat="50.45125" lon="3.52455">
        <ele>21.038342</ele>
        <time>2020-06-01T15:50:24.030Z</time>
      </trkpt>
      <trkpt lat="50.45102" lon="3.52431">
        <ele>21.21951</ele>
        <time>2020-06-01T15:50:29.943Z</time>
      </trkpt>
      <trkpt lat="50.44987" lon="3.52304">
        <ele>21.953049</ele>
        <time>2020-06-01T15:51:01.209Z</time>
      </trkpt>
      <trkpt lat="50.44947" lon="3.52384">
        <ele>22.479083</ele>
        <time>2020-06-01T15:51:15.156Z</time>
      </trkpt>
      <trkpt lat="50.44932" lon="3.52404">
        <ele>22.829923</ele>
        <time>2020-06-01T15:51:19.898Z</time>
      </trkpt>
      <trkpt lat="50.44908" lon="3.52397">
        <ele>23.255045</ele>
        <time>2020-06-01T15:51:25.804Z</time>
      </trkpt>
      <trkpt lat="50.44266" lon="3.51924">
        <ele>35.934699</ele>
        <time>2020-06-01T15:54:42.139Z</time>
      </trkpt>
      <trkpt lat="50.44242" lon="3.51914">
        <ele>36.439278</ele>
        <time>2020-06-01T15:54:49.292Z</time>
      </trkpt>
      <trkpt lat="50.4423" lon="3.51916">
        <ele>36.697374</ele>
        <time>2020-06-01T15:54:55.161Z</time>
      </trkpt>
      <trkpt lat="50.44209" lon="3.51939">
        <ele>37.225271</ele>
        <time>2020-06-01T15:55:02.182Z</time>
      </trkpt>
      <trkpt lat="50.44201" lon="3.5195">
        <ele>37.430146</ele>
        <time>2020-06-01T15:55:07.257Z</time>
      </trkpt>
      <trkpt lat="50.442" lon="3.51942">
        <ele>37.532579</ele>
        <time>2020-06-01T15:55:08.615Z</time>
      </trkpt>
      <trkpt lat="50.4393" lon="3.51255">
        <ele>39.805941</ele>
        <time>2020-06-01T15:57:02.510Z</time>
      </trkpt>
      <trkpt lat="50.43688" lon="3.50634">
        <ele>31.661696</ele>
        <time>2020-06-01T15:58:15.729Z</time>
      </trkpt>
      <trkpt lat="50.43687" lon="3.50623">
        <ele>31.543451</ele>
        <time>2020-06-01T15:58:16.752Z</time>
      </trkpt>
      <trkpt lat="50.43703" lon="3.50602">
        <ele>31.189883</ele>
        <time>2020-06-01T15:58:19.993Z</time>
      </trkpt>
      <trkpt lat="50.43794" lon="3.50441">
        <ele>29.131706</ele>
        <time>2020-06-01T15:58:42.241Z</time>
      </trkpt>
      <trkpt lat="50.43794" lon="3.50441">
        <ele>29.131706</ele>
        <time>2020-06-01T15:58:42.242Z</time>
      </trkpt>
      <trkpt lat="50.43803" lon="3.50429">
        <ele>29.158508</ele>
        <time>2020-06-01T15:58:44.287Z</time>
      </trkpt>
      <trkpt lat="50.43983" lon="3.49526">
        <ele>31.053524</ele>
        <time>2020-06-01T16:00:57.091Z</time>
      </trkpt>
      <trkpt lat="50.44009" lon="3.49387">
        <ele>31.401324</ele>
        <time>2020-06-01T16:01:17.151Z</time>
      </trkpt>
      <trkpt lat="50.44064" lon="3.49097">
        <ele>31.238594</ele>
        <time>2020-06-01T16:01:56.486Z</time>
      </trkpt>
      <trkpt lat="50.44068" lon="3.49078">
        <ele>31.135786</ele>
        <time>2020-06-01T16:01:58.710Z</time>
      </trkpt>
      <trkpt lat="50.44113" lon="3.48863">
        <ele>29.9229</ele>
        <time>2020-06-01T16:02:23.808Z</time>
      </trkpt>
      <trkpt lat="50.44139" lon="3.48739">
        <ele>29.086448</ele>
        <time>2020-06-01T16:02:37.868Z</time>
      </trkpt>
      <trkpt lat="50.44284" lon="3.48004">
        <ele>24.192506</ele>
        <time>2020-06-01T16:04:03.325Z</time>
      </trkpt>
      <trkpt lat="50.44287" lon="3.47989">
        <ele>24.128075</ele>
        <time>2020-06-01T16:04:05.104Z</time>
      </trkpt>
      <trkpt lat="50.44293" lon="3.47958">
        <ele>23.99778</ele>
        <time>2020-06-01T16:04:08.749Z</time>
      </trkpt>
      <trkpt lat="50.44287" lon="3.47965">
        <ele>23.951764</ele>
        <time>2020-06-01T16:04:09.565Z</time>
      </trkpt>
      <trkpt lat="50.44124" lon="3.4799">
        <ele>23.499201</ele>
        <time>2020-06-01T16:04:31.408Z</time>
      </trkpt>
      <trkpt lat="50.43654" lon="3.48056">
        <ele>26.715519</ele>
        <time>2020-06-01T16:05:57.571Z</time>
      </trkpt>
      <trkpt lat="50.43301" lon="3.48107">
        <ele>26.970775</ele>
        <time>2020-06-01T16:06:49.296Z</time>
      </trkpt>
      <trkpt lat="50.43281" lon="3.48105">
        <ele>26.981978</ele>
        <time>2020-06-01T16:06:52.452Z</time>
      </trkpt>
      <trkpt lat="50.43271" lon="3.481">
        <ele>27.009791</ele>
        <time>2020-06-01T16:06:54.269Z</time>
      </trkpt>
      <trkpt lat="50.43267" lon="3.48097">
        <ele>27.062511</ele>
        <time>2020-06-01T16:06:54.994Z</time>
      </trkpt>
      <trkpt lat="50.43262" lon="3.48091">
        <ele>27.128115</ele>
        <time>2020-06-01T16:06:56.091Z</time>
      </trkpt>
      <trkpt lat="50.43255" lon="3.4808">
        <ele>27.223412</ele>
        <time>2020-06-01T16:06:57.537Z</time>
      </trkpt>
      <trkpt lat="50.43251" lon="3.48065">
        <ele>27.333505</ele>
        <time>2020-06-01T16:06:59.506Z</time>
      </trkpt>
      <trkpt lat="50.4324" lon="3.47903">
        <ele>28.415394</ele>
        <time>2020-06-01T16:07:19.275Z</time>
      </trkpt>
      <trkpt lat="50.43218" lon="3.47803">
        <ele>29.137634</ele>
        <time>2020-06-01T16:07:34.138Z</time>
      </trkpt>
      <trkpt lat="50.43184" lon="3.47597">
        <ele>30.654244</ele>
        <time>2020-06-01T16:08:01.785Z</time>
      </trkpt>
      <trkpt lat="50.43163" lon="3.47279">
        <ele>30.269832</ele>
        <time>2020-06-01T16:08:29.591Z</time>
      </trkpt>
      <trkpt lat="50.43136" lon="3.47204">
        <ele>29.869384</ele>
        <time>2020-06-01T16:08:36.319Z</time>
      </trkpt>
      <trkpt lat="50.43126" lon="3.47189">
        <ele>29.768967</ele>
        <time>2020-06-01T16:08:37.892Z</time>
      </trkpt>
      <trkpt lat="50.43178" lon="3.47063">
        <ele>29.067243</ele>
        <time>2020-06-01T16:08:50.043Z</time>
      </trkpt>
      <trkpt lat="50.43286" lon="3.46805">
        <ele>28.774654</ele>
        <time>2020-06-01T16:09:17.778Z</time>
      </trkpt>
      <trkpt lat="50.4332" lon="3.46722">
        <ele>29.454108</ele>
        <time>2020-06-01T16:09:29.016Z</time>
      </trkpt>
      <trkpt lat="50.43343" lon="3.46667">
        <ele>29.903222</ele>
        <time>2020-06-01T16:09:37.418Z</time>
      </trkpt>
      <trkpt lat="50.43374" lon="3.46594">
        <ele>30.50977</ele>
        <time>2020-06-01T16:09:48.718Z</time>
      </trkpt>
      <trkpt lat="50.4338" lon="3.46585">
        <ele>30.595604</ele>
        <time>2020-06-01T16:09:50.456Z</time>
      </trkpt>
      <trkpt lat="50.43393" lon="3.46579">
        <ele>30.784681</ele>
        <time>2020-06-01T16:09:53.743Z</time>
      </trkpt>
      <trkpt lat="50.4346" lon="3.46592">
        <ele>31.80597</ele>
        <time>2020-06-01T16:10:08.615Z</time>
      </trkpt>
      <trkpt lat="50.43489" lon="3.46569">
        <ele>32.311609</ele>
        <time>2020-06-01T16:10:15.934Z</time>
      </trkpt>
      <trkpt lat="50.43513" lon="3.46523">
        <ele>32.882798</ele>
        <time>2020-06-01T16:10:23.673Z</time>
      </trkpt>
      <trkpt lat="50.43524" lon="3.46483">
        <ele>33.3034</ele>
        <time>2020-06-01T16:10:29.470Z</time>
      </trkpt>
      <trkpt lat="50.43536" lon="3.46322">
        <ele>33.878605</ele>
        <time>2020-06-01T16:10:47.786Z</time>
      </trkpt>
      <trkpt lat="50.4354" lon="3.46303">
        <ele>33.939654</ele>
        <time>2020-06-01T16:10:49.390Z</time>
      </trkpt>
      <trkpt lat="50.43542" lon="3.46289">
        <ele>33.985215</ele>
        <time>2020-06-01T16:10:51.290Z</time>
      </trkpt>
      <trkpt lat="50.43597" lon="3.4606">
        <ele>33.99788</ele>
        <time>2020-06-01T16:11:14.537Z</time>
      </trkpt>
      <trkpt lat="50.43597" lon="3.4606">
        <ele>33.99788</ele>
        <time>2020-06-01T16:11:14.537Z</time>
      </trkpt>
      <trkpt lat="50.43601" lon="3.46006">
        <ele>33.893264</ele>
        <time>2020-06-01T16:11:19.316Z</time>
      </trkpt>
      <trkpt lat="50.43607" lon="3.45893">
        <ele>33.488167</ele>
        <time>2020-06-01T16:11:28.484Z</time>
      </trkpt>
      <trkpt lat="50.43609" lon="3.45805">
        <ele>32.843353</ele>
        <time>2020-06-01T16:11:35.060Z</time>
      </trkpt>
      <trkpt lat="50.4361" lon="3.45755">
        <ele>32.475731</ele>
        <time>2020-06-01T16:11:38.823Z</time>
      </trkpt>
      <trkpt lat="50.43611" lon="3.45705">
        <ele>32.110172</ele>
        <time>2020-06-01T16:11:42.624Z</time>
      </trkpt>
      <trkpt lat="50.43612" lon="3.45671">
        <ele>31.868635</ele>
        <time>2020-06-01T16:11:45.210Z</time>
      </trkpt>
      <trkpt lat="50.43616" lon="3.45646">
        <ele>31.679052</ele>
        <time>2020-06-01T16:11:47.244Z</time>
      </trkpt>
      <trkpt lat="50.43625" lon="3.45608">
        <ele>31.467363</ele>
        <time>2020-06-01T16:11:50.375Z</time>
      </trkpt>
      <trkpt lat="50.43644" lon="3.45529">
        <ele>31.019073</ele>
        <time>2020-06-01T16:11:57.115Z</time>
      </trkpt>
      <trkpt lat="50.43659" lon="3.45458">
        <ele>30.625352</ele>
        <time>2020-06-01T16:12:03.112Z</time>
      </trkpt>
      <trkpt lat="50.43689" lon="3.45318">
        <ele>29.56058</ele>
        <time>2020-06-01T16:12:15.468Z</time>
      </trkpt>
      <trkpt lat="50.43708" lon="3.45231">
        <ele>28.674944</ele>
        <time>2020-06-01T16:12:22.495Z</time>
      </trkpt>
      <trkpt lat="50.43716" lon="3.45204">
        <ele>28.384065</ele>
        <time>2020-06-01T16:12:24.564Z</time>
      </trkpt>
      <trkpt lat="50.4371" lon="3.45198">
        <ele>28.272412</ele>
        <time>2020-06-01T16:12:25.467Z</time>
      </trkpt>
      <trkpt lat="50.43679" lon="3.45166">
        <ele>27.72079</ele>
        <time>2020-06-01T16:12:29.464Z</time>
      </trkpt>
      <trkpt lat="50.43673" lon="3.4516">
        <ele>27.610171</ele>
        <time>2020-06-01T16:12:30.286Z</time>
      </trkpt>
      <trkpt lat="50.43655" lon="3.45143">
        <ele>27.164615</ele>
        <time>2020-06-01T16:12:32.456Z</time>
      </trkpt>
      <trkpt lat="50.43558" lon="3.45046">
        <ele>24.239414</ele>
        <time>2020-06-01T16:12:44.267Z</time>
      </trkpt>
      <trkpt lat="50.43489" lon="3.44978">
        <ele>22.784188</ele>
        <time>2020-06-01T16:12:53.026Z</time>
      </trkpt>
      <trkpt lat="50.43438" lon="3.44927">
        <ele>22.574568</ele>
        <time>2020-06-01T16:13:00.453Z</time>
      </trkpt>
      <trkpt lat="50.43297" lon="3.44785">
        <ele>22.859228</ele>
        <time>2020-06-01T16:13:31.094Z</time>
      </trkpt>
      <trkpt lat="50.42912" lon="3.44396">
        <ele>25.632681</ele>
        <time>2020-06-01T16:14:52.842Z</time>
      </trkpt>
      <trkpt lat="50.42907" lon="3.44391">
        <ele>25.617189</ele>
        <time>2020-06-01T16:14:53.606Z</time>
      </trkpt>
      <trkpt lat="50.42904" lon="3.44386">
        <ele>25.517797</ele>
        <time>2020-06-01T16:14:53.965Z</time>
      </trkpt>
      <trkpt lat="50.42906" lon="3.44345">
        <ele>24.845753</ele>
        <time>2020-06-01T16:14:57.088Z</time>
      </trkpt>
      <trkpt lat="50.42906" lon="3.44333">
        <ele>24.65456</ele>
        <time>2020-06-01T16:14:57.839Z</time>
      </trkpt>
      <trkpt lat="50.4292" lon="3.44112">
        <ele>21.036623</ele>
        <time>2020-06-01T16:15:12.285Z</time>
      </trkpt>
      <trkpt lat="50.42926" lon="3.44074">
        <ele>20.446469</ele>
        <time>2020-06-01T16:15:15.942Z</time>
      </trkpt>
      <trkpt lat="50.42928" lon="3.44051">
        <ele>20.090165</ele>
        <time>2020-06-01T16:15:18.115Z</time>
      </trkpt>
      <trkpt lat="50.42929" lon="3.44047">
        <ele>20.032744</ele>
        <time>2020-06-01T16:15:18.363Z</time>
      </trkpt>
      <trkpt lat="50.42932" lon="3.44037">
        <ele>19.856012</ele>
        <time>2020-06-01T16:15:19.144Z</time>
      </trkpt>
      <trkpt lat="50.42931" lon="3.44021">
        <ele>19.62008</ele>
        <time>2020-06-01T16:15:20.215Z</time>
      </trkpt>
      <trkpt lat="50.42928" lon="3.4401">
        <ele>19.441791</ele>
        <time>2020-06-01T16:15:20.987Z</time>
      </trkpt>
      <trkpt lat="50.42926" lon="3.44008">
        <ele>19.38298</ele>
        <time>2020-06-01T16:15:21.243Z</time>
      </trkpt>
      <trkpt lat="50.42925" lon="3.43998">
        <ele>19.231505</ele>
        <time>2020-06-01T16:15:21.894Z</time>
      </trkpt>
      <trkpt lat="50.42927" lon="3.43972">
        <ele>18.836288</ele>
        <time>2020-06-01T16:15:23.703Z</time>
      </trkpt>
      <trkpt lat="50.42935" lon="3.43956">
        <ele>18.522422</ele>
        <time>2020-06-01T16:15:25.096Z</time>
      </trkpt>
      <trkpt lat="50.42995" lon="3.43894">
        <ele>16.833928</ele>
        <time>2020-06-01T16:15:32.937Z</time>
      </trkpt>
      <trkpt lat="50.43004" lon="3.43883">
        <ele>16.720239</ele>
        <time>2020-06-01T16:15:34.272Z</time>
      </trkpt>
      <trkpt lat="50.43013" lon="3.43873">
        <ele>16.649073</ele>
        <time>2020-06-01T16:15:35.642Z</time>
      </trkpt>
      <trkpt lat="50.43043" lon="3.43837">
        <ele>16.400566</ele>
        <time>2020-06-01T16:15:40.337Z</time>
      </trkpt>
      <trkpt lat="50.43047" lon="3.43833">
        <ele>16.371978</ele>
        <time>2020-06-01T16:15:40.890Z</time>
      </trkpt>
      <trkpt lat="50.43052" lon="3.43828">
        <ele>16.333024</ele>
        <time>2020-06-01T16:15:41.734Z</time>
      </trkpt>
      <trkpt lat="50.43044" lon="3.43809">
        <ele>16.239801</ele>
        <time>2020-06-01T16:15:44.314Z</time>
      </trkpt>
      <trkpt lat="50.43041" lon="3.43734">
        <ele>15.925005</ele>
        <time>2020-06-01T16:15:53.573Z</time>
      </trkpt>
      <trkpt lat="50.43024" lon="3.43624">
        <ele>15.577588</ele>
        <time>2020-06-01T16:16:07.673Z</time>
      </trkpt>
      <trkpt lat="50.43024" lon="3.43609">
        <ele>15.565666</ele>
        <time>2020-06-01T16:16:09.634Z</time>
      </trkpt>
      <trkpt lat="50.43027" lon="3.43563">
        <ele>15.529569</ele>
        <time>2020-06-01T16:16:15.380Z</time>
      </trkpt>
      <trkpt lat="50.43028" lon="3.43555">
        <ele>15.523306</ele>
        <time>2020-06-01T16:16:16.400Z</time>
      </trkpt>
      <trkpt lat="50.43029" lon="3.43537">
        <ele>15.50866</ele>
        <time>2020-06-01T16:16:18.908Z</time>
      </trkpt>
      <trkpt lat="50.43034" lon="3.43431">
        <ele>15.424628</ele>
        <time>2020-06-01T16:16:32.411Z</time>
      </trkpt>
      <trkpt lat="50.43051" lon="3.43035">
        <ele>14.873884</ele>
        <time>2020-06-01T16:17:21.246Z</time>
      </trkpt>
      <trkpt lat="50.43131" lon="3.42791">
        <ele>14.646793</ele>
        <time>2020-06-01T16:17:56.295Z</time>
      </trkpt>
      <trkpt lat="50.43137" lon="3.42782">
        <ele>14.636653</ele>
        <time>2020-06-01T16:17:58.141Z</time>
      </trkpt>
      <trkpt lat="50.43135" lon="3.42773">
        <ele>14.629162</ele>
        <time>2020-06-01T16:17:58.814Z</time>
      </trkpt>
      <trkpt lat="50.43102" lon="3.42618">
        <ele>14.496817</ele>
        <time>2020-06-01T16:18:13.354Z</time>
      </trkpt>
      <trkpt lat="50.4305" lon="3.42343">
        <ele>14.954494</ele>
        <time>2020-06-01T16:18:41.276Z</time>
      </trkpt>
      <trkpt lat="50.4301" lon="3.42135">
        <ele>16.543332</ele>
        <time>2020-06-01T16:19:08.901Z</time>
      </trkpt>
      <trkpt lat="50.42918" lon="3.41683">
        <ele>20.917967</ele>
        <time>2020-06-01T16:20:14.172Z</time>
      </trkpt>
      <trkpt lat="50.4289" lon="3.41509">
        <ele>21.934565</ele>
        <time>2020-06-01T16:20:34.076Z</time>
      </trkpt>
      <trkpt lat="50.42885" lon="3.41471">
        <ele>21.890254</ele>
        <time>2020-06-01T16:20:37.911Z</time>
      </trkpt>
      <trkpt lat="50.42881" lon="3.41438">
        <ele>21.726553</ele>
        <time>2020-06-01T16:20:41.021Z</time>
      </trkpt>
      <trkpt lat="50.42873" lon="3.41356">
        <ele>21.321678</ele>
        <time>2020-06-01T16:20:47.767Z</time>
      </trkpt>
      <trkpt lat="50.42841" lon="3.41187">
        <ele>20.273768</ele>
        <time>2020-06-01T16:21:01.195Z</time>
      </trkpt>
      <trkpt lat="50.4284" lon="3.41173">
        <ele>20.13531</ele>
        <time>2020-06-01T16:21:02.153Z</time>
      </trkpt>
      <trkpt lat="50.42837" lon="3.41157">
        <ele>19.966358</ele>
        <time>2020-06-01T16:21:03.486Z</time>
      </trkpt>
      <trkpt lat="50.42836" lon="3.41154">
        <ele>19.930967</ele>
        <time>2020-06-01T16:21:03.725Z</time>
      </trkpt>
      <trkpt lat="50.42834" lon="3.41137">
        <ele>19.757328</ele>
        <time>2020-06-01T16:21:05.025Z</time>
      </trkpt>
      <trkpt lat="50.42832" lon="3.41132">
        <ele>19.708976</ele>
        <time>2020-06-01T16:21:05.349Z</time>
      </trkpt>
      <trkpt lat="50.42822" lon="3.41087">
        <ele>19.229303</ele>
        <time>2020-06-01T16:21:08.794Z</time>
      </trkpt>
      <trkpt lat="50.42774" lon="3.40962">
        <ele>17.77226</ele>
        <time>2020-06-01T16:21:19.276Z</time>
      </trkpt>
      <trkpt lat="50.42769" lon="3.4095">
        <ele>17.680213</ele>
        <time>2020-06-01T16:21:20.298Z</time>
      </trkpt>
      <trkpt lat="50.4275" lon="3.40908">
        <ele>17.348622</ele>
        <time>2020-06-01T16:21:24.204Z</time>
      </trkpt>
      <trkpt lat="50.42706" lon="3.40784">
        <ele>16.424761</ele>
        <time>2020-06-01T16:21:35.504Z</time>
      </trkpt>
      <trkpt lat="50.42692" lon="3.40753">
        <ele>16.184653</ele>
        <time>2020-06-01T16:21:38.437Z</time>
      </trkpt>
      <trkpt lat="50.42612" lon="3.4063">
        <ele>15.35297</ele>
        <time>2020-06-01T16:21:52.882Z</time>
      </trkpt>
      <trkpt lat="50.42583" lon="3.40595">
        <ele>15.10551</ele>
        <time>2020-06-01T16:21:57.600Z</time>
      </trkpt>
      <trkpt lat="50.42553" lon="3.40572">
        <ele>14.880673</ele>
        <time>2020-06-01T16:22:01.859Z</time>
      </trkpt>
      <trkpt lat="50.42537" lon="3.40559">
        <ele>14.758584</ele>
        <time>2020-06-01T16:22:04.187Z</time>
      </trkpt>
      <trkpt lat="50.42521" lon="3.40552">
        <ele>14.714127</ele>
        <time>2020-06-01T16:22:06.367Z</time>
      </trkpt>
      <trkpt lat="50.42482" lon="3.40542">
        <ele>14.618425</ele>
        <time>2020-06-01T16:22:11.514Z</time>
      </trkpt>
      <trkpt lat="50.42457" lon="3.40539">
        <ele>14.558101</ele>
        <time>2020-06-01T16:22:14.973Z</time>
      </trkpt>
      <trkpt lat="50.42425" lon="3.40544">
        <ele>14.480955</ele>
        <time>2020-06-01T16:22:19.462Z</time>
      </trkpt>
      <trkpt lat="50.4236" lon="3.40564">
        <ele>14.321593</ele>
        <time>2020-06-01T16:22:29.182Z</time>
      </trkpt>
      <trkpt lat="50.42335" lon="3.40575">
        <ele>14.564401</ele>
        <time>2020-06-01T16:22:33.195Z</time>
      </trkpt>
      <trkpt lat="50.42321" lon="3.40582">
        <ele>14.707067</ele>
        <time>2020-06-01T16:22:35.760Z</time>
      </trkpt>
      <trkpt lat="50.42166" lon="3.40669">
        <ele>16.4381</ele>
        <time>2020-06-01T16:23:08.079Z</time>
      </trkpt>
      <trkpt lat="50.42126" lon="3.40683">
        <ele>17.059499</ele>
        <time>2020-06-01T16:23:16.792Z</time>
      </trkpt>
      <trkpt lat="50.42074" lon="3.40691">
        <ele>17.85563</ele>
        <time>2020-06-01T16:23:28.124Z</time>
      </trkpt>
      <trkpt lat="50.4206" lon="3.40693">
        <ele>18.06536</ele>
        <time>2020-06-01T16:23:31.086Z</time>
      </trkpt>
      <trkpt lat="50.42042" lon="3.40696">
        <ele>18.343525</ele>
        <time>2020-06-01T16:23:35.032Z</time>
      </trkpt>
      <trkpt lat="50.4199" lon="3.40707">
        <ele>19.001249</ele>
        <time>2020-06-01T16:23:46.181Z</time>
      </trkpt>
      <trkpt lat="50.41922" lon="3.40716">
        <ele>19.592603</ele>
        <time>2020-06-01T16:23:59.470Z</time>
      </trkpt>
      <trkpt lat="50.41878" lon="3.4072">
        <ele>19.977297</ele>
        <time>2020-06-01T16:24:07.217Z</time>
      </trkpt>
      <trkpt lat="50.41813" lon="3.4073">
        <ele>20.28868</ele>
        <time>2020-06-01T16:24:17.757Z</time>
      </trkpt>
      <trkpt lat="50.41806" lon="3.40731">
        <ele>20.261974</ele>
        <time>2020-06-01T16:24:18.711Z</time>
      </trkpt>
      <trkpt lat="50.41772" lon="3.40734">
        <ele>20.130757</ele>
        <time>2020-06-01T16:24:23.565Z</time>
      </trkpt>
      <trkpt lat="50.41764" lon="3.40736">
        <ele>20.098683</ele>
        <time>2020-06-01T16:24:24.750Z</time>
      </trkpt>
      <trkpt lat="50.41748" lon="3.40736">
        <ele>20.038958</ele>
        <time>2020-06-01T16:24:26.863Z</time>
      </trkpt>
      <trkpt lat="50.41738" lon="3.40737">
        <ele>19.999606</ele>
        <time>2020-06-01T16:24:28.074Z</time>
      </trkpt>
      <trkpt lat="50.4169" lon="3.40738">
        <ele>19.816312</ele>
        <time>2020-06-01T16:24:34.081Z</time>
      </trkpt>
      <trkpt lat="50.41619" lon="3.40735">
        <ele>19.511792</ele>
        <time>2020-06-01T16:24:43.337Z</time>
      </trkpt>
      <trkpt lat="50.416" lon="3.4073">
        <ele>19.42491</ele>
        <time>2020-06-01T16:24:45.810Z</time>
      </trkpt>
      <trkpt lat="50.416" lon="3.4073">
        <ele>19.42491</ele>
        <time>2020-06-01T16:24:45.814Z</time>
      </trkpt>
      <trkpt lat="50.41572" lon="3.40722">
        <ele>19.291428</ele>
        <time>2020-06-01T16:24:49.699Z</time>
      </trkpt>
      <trkpt lat="50.41562" lon="3.40718">
        <ele>19.244613</ele>
        <time>2020-06-01T16:24:50.877Z</time>
      </trkpt>
      <trkpt lat="50.4155" lon="3.40714">
        <ele>19.187864</ele>
        <time>2020-06-01T16:24:52.549Z</time>
      </trkpt>
      <trkpt lat="50.41513" lon="3.40702">
        <ele>19.007349</ele>
        <time>2020-06-01T16:24:57.797Z</time>
      </trkpt>
      <trkpt lat="50.41408" lon="3.40662">
        <ele>18.520887</ele>
        <time>2020-06-01T16:25:13.143Z</time>
      </trkpt>
      <trkpt lat="50.41273" lon="3.40614">
        <ele>17.830737</ele>
        <time>2020-06-01T16:25:31.161Z</time>
      </trkpt>
      <trkpt lat="50.41321" lon="3.40522">
        <ele>17.306849</ele>
        <time>2020-06-01T16:25:44.596Z</time>
      </trkpt>
      <trkpt lat="50.41336" lon="3.40497">
        <ele>17.156666</ele>
        <time>2020-06-01T16:25:48.533Z</time>
      </trkpt>
      <trkpt lat="50.41372" lon="3.40435">
        <ele>16.788188</ele>
        <time>2020-06-01T16:25:58.142Z</time>
      </trkpt>
      <trkpt lat="50.41433" lon="3.40328">
        <ele>16.600178</ele>
        <time>2020-06-01T16:26:15.697Z</time>
      </trkpt>
      <trkpt lat="50.415" lon="3.40212">
        <ele>16.435082</ele>
        <time>2020-06-01T16:26:35.965Z</time>
      </trkpt>
      <trkpt lat="50.41512" lon="3.40197">
        <ele>16.457652</ele>
        <time>2020-06-01T16:26:39.176Z</time>
      </trkpt>
      <trkpt lat="50.415" lon="3.4014">
        <ele>16.512199</ele>
        <time>2020-06-01T16:26:44.870Z</time>
      </trkpt>
      <trkpt lat="50.41489" lon="3.40064">
        <ele>16.582876</ele>
        <time>2020-06-01T16:26:52.455Z</time>
      </trkpt>
      <trkpt lat="50.41471" lon="3.39998">
        <ele>16.648255</ele>
        <time>2020-06-01T16:26:59.644Z</time>
      </trkpt>
      <trkpt lat="50.41442" lon="3.39906">
        <ele>16.78413</ele>
        <time>2020-06-01T16:27:10.041Z</time>
      </trkpt>
      <trkpt lat="50.41439" lon="3.39875">
        <ele>16.82988</ele>
        <time>2020-06-01T16:27:13.339Z</time>
      </trkpt>
      <trkpt lat="50.41467" lon="3.39611">
        <ele>17.127753</ele>
        <time>2020-06-01T16:27:40.145Z</time>
      </trkpt>
      <trkpt lat="50.41482" lon="3.39488">
        <ele>17.17472</ele>
        <time>2020-06-01T16:27:52.053Z</time>
      </trkpt>
      <trkpt lat="50.41488" lon="3.39439">
        <ele>17.19351</ele>
        <time>2020-06-01T16:27:56.800Z</time>
      </trkpt>
      <trkpt lat="50.41502" lon="3.39314">
        <ele>17.228202</ele>
        <time>2020-06-01T16:28:08.786Z</time>
      </trkpt>
      <trkpt lat="50.41511" lon="3.3925">
        <ele>17.244951</ele>
        <time>2020-06-01T16:28:15.150Z</time>
      </trkpt>
      <trkpt lat="50.41512" lon="3.39237">
        <ele>17.248296</ele>
        <time>2020-06-01T16:28:16.386Z</time>
      </trkpt>
      <trkpt lat="50.41527" lon="3.3918">
        <ele>17.264048</ele>
        <time>2020-06-01T16:28:22.569Z</time>
      </trkpt>
      <trkpt lat="50.4163" lon="3.38996">
        <ele>17.3086</ele>
        <time>2020-06-01T16:28:45.604Z</time>
      </trkpt>
      <trkpt lat="50.41633" lon="3.38991">
        <ele>17.309727</ele>
        <time>2020-06-01T16:28:46.227Z</time>
      </trkpt>
      <trkpt lat="50.41644" lon="3.38966">
        <ele>17.314778</ele>
        <time>2020-06-01T16:28:48.903Z</time>
      </trkpt>
      <trkpt lat="50.41655" lon="3.38938">
        <ele>17.32043</ele>
        <time>2020-06-01T16:28:51.977Z</time>
      </trkpt>
      <trkpt lat="50.41668" lon="3.38876">
        <ele>17.447663</ele>
        <time>2020-06-01T16:28:58.324Z</time>
      </trkpt>
      <trkpt lat="50.41683" lon="3.38779">
        <ele>17.641747</ele>
        <time>2020-06-01T16:29:08.662Z</time>
      </trkpt>
      <trkpt lat="50.41693" lon="3.38735">
        <ele>17.7343</ele>
        <time>2020-06-01T16:29:13.622Z</time>
      </trkpt>
      <trkpt lat="50.41711" lon="3.38698">
        <ele>17.823688</ele>
        <time>2020-06-01T16:29:18.476Z</time>
      </trkpt>
      <trkpt lat="50.41725" lon="3.38688">
        <ele>17.871081</ele>
        <time>2020-06-01T16:29:21.274Z</time>
      </trkpt>
      <trkpt lat="50.41739" lon="3.38687">
        <ele>17.932611</ele>
        <time>2020-06-01T16:29:23.584Z</time>
      </trkpt>
      <trkpt lat="50.418" lon="3.38696">
        <ele>18.192927</ele>
        <time>2020-06-01T16:29:34.048Z</time>
      </trkpt>
      <trkpt lat="50.41825" lon="3.38703">
        <ele>18.301366</ele>
        <time>2020-06-01T16:29:38.257Z</time>
      </trkpt>
      <trkpt lat="50.41898" lon="3.3872">
        <ele>18.614252</ele>
        <time>2020-06-01T16:29:50.315Z</time>
      </trkpt>
      <trkpt lat="50.41942" lon="3.38738">
        <ele>18.756568</ele>
        <time>2020-06-01T16:29:57.345Z</time>
      </trkpt>
      <trkpt lat="50.41972" lon="3.38764">
        <ele>18.859149</ele>
        <time>2020-06-01T16:30:02.694Z</time>
      </trkpt>
      <trkpt lat="50.41986" lon="3.38766">
        <ele>18.900156</ele>
        <time>2020-06-01T16:30:04.915Z</time>
      </trkpt>
      <trkpt lat="50.42075" lon="3.38738">
        <ele>19.170731</ele>
        <time>2020-06-01T16:30:19.604Z</time>
      </trkpt>
      <trkpt lat="50.42089" lon="3.38737">
        <ele>19.194352</ele>
        <time>2020-06-01T16:30:21.969Z</time>
      </trkpt>
      <trkpt lat="50.42102" lon="3.38736">
        <ele>19.215575</ele>
        <time>2020-06-01T16:30:24.194Z</time>
      </trkpt>
      <trkpt lat="50.42138" lon="3.38742">
        <ele>19.274054</ele>
        <time>2020-06-01T16:30:30.115Z</time>
      </trkpt>
      <trkpt lat="50.42173" lon="3.38739">
        <ele>19.332281</ele>
        <time>2020-06-01T16:30:35.637Z</time>
      </trkpt>
      <trkpt lat="50.422" lon="3.38721">
        <ele>19.379393</ele>
        <time>2020-06-01T16:30:40.041Z</time>
      </trkpt>
      <trkpt lat="50.42251" lon="3.38693">
        <ele>19.460674</ele>
        <time>2020-06-01T16:30:48.220Z</time>
      </trkpt>
      <trkpt lat="50.42258" lon="3.38689">
        <ele>19.424387</ele>
        <time>2020-06-01T16:30:49.223Z</time>
      </trkpt>
      <trkpt lat="50.42283" lon="3.38673">
        <ele>19.288595</ele>
        <time>2020-06-01T16:30:53.064Z</time>
      </trkpt>
      <trkpt lat="50.42293" lon="3.38672">
        <ele>19.236788</ele>
        <time>2020-06-01T16:30:54.390Z</time>
      </trkpt>
      <trkpt lat="50.4231" lon="3.3867">
        <ele>19.156094</ele>
        <time>2020-06-01T16:30:56.543Z</time>
      </trkpt>
      <trkpt lat="50.42418" lon="3.38629">
        <ele>18.601433</ele>
        <time>2020-06-01T16:31:10.893Z</time>
      </trkpt>
      <trkpt lat="50.42441" lon="3.38625">
        <ele>18.469882</ele>
        <time>2020-06-01T16:31:13.761Z</time>
      </trkpt>
      <trkpt lat="50.42503" lon="3.38701">
        <ele>17.994228</ele>
        <time>2020-06-01T16:31:28.530Z</time>
      </trkpt>
      <trkpt lat="50.42525" lon="3.38725">
        <ele>17.829401</ele>
        <time>2020-06-01T16:31:33.417Z</time>
      </trkpt>
      <trkpt lat="50.4258" lon="3.388">
        <ele>17.398524</ele>
        <time>2020-06-01T16:31:46.541Z</time>
      </trkpt>
      <trkpt lat="50.42587" lon="3.38827">
        <ele>17.299728</ele>
        <time>2020-06-01T16:31:48.930Z</time>
      </trkpt>
      <trkpt lat="50.42588" lon="3.38843">
        <ele>17.24538</ele>
        <time>2020-06-01T16:31:50.203Z</time>
      </trkpt>
      <trkpt lat="50.42601" lon="3.38874">
        <ele>17.119474</ele>
        <time>2020-06-01T16:31:53.340Z</time>
      </trkpt>
      <trkpt lat="50.42605" lon="3.38872">
        <ele>17.09753</ele>
        <time>2020-06-01T16:31:53.997Z</time>
      </trkpt>
      <trkpt lat="50.42666" lon="3.38849">
        <ele>16.767551</ele>
        <time>2020-06-01T16:32:05.727Z</time>
      </trkpt>
      <trkpt lat="50.42691" lon="3.38841">
        <ele>16.631034</ele>
        <time>2020-06-01T16:32:10.541Z</time>
      </trkpt>
      <trkpt lat="50.42722" lon="3.3883">
        <ele>16.539906</ele>
        <time>2020-06-01T16:32:16.508Z</time>
      </trkpt>
      <trkpt lat="50.42783" lon="3.38802">
        <ele>16.587541</ele>
        <time>2020-06-01T16:32:29.264Z</time>
      </trkpt>
      <trkpt lat="50.42794" lon="3.38792">
        <ele>16.59716</ele>
        <time>2020-06-01T16:32:31.923Z</time>
      </trkpt>
      <trkpt lat="50.42805" lon="3.38782">
        <ele>16.606756</ele>
        <time>2020-06-01T16:32:34.760Z</time>
      </trkpt>
      <trkpt lat="50.42826" lon="3.38764">
        <ele>16.624528</ele>
        <time>2020-06-01T16:32:39.728Z</time>
      </trkpt>
      <trkpt lat="50.42832" lon="3.38759">
        <ele>16.629992</ele>
        <time>2020-06-01T16:32:41.360Z</time>
      </trkpt>
      <trkpt lat="50.4293" lon="3.38696">
        <ele>16.597264</ele>
        <time>2020-06-01T16:33:03.821Z</time>
      </trkpt>
      <trkpt lat="50.42996" lon="3.38661">
        <ele>16.515855</ele>
        <time>2020-06-01T16:33:17.161Z</time>
      </trkpt>
      <trkpt lat="50.43023" lon="3.38643">
        <ele>16.480795</ele>
        <time>2020-06-01T16:33:22.643Z</time>
      </trkpt>
      <trkpt lat="50.43101" lon="3.38561">
        <ele>16.514962</ele>
        <time>2020-06-01T16:33:40.487Z</time>
      </trkpt>
      <trkpt lat="50.43127" lon="3.38537">
        <ele>16.54064</ele>
        <time>2020-06-01T16:33:46.630Z</time>
      </trkpt>
      <trkpt lat="50.43176" lon="3.38515">
        <ele>16.584398</ele>
        <time>2020-06-01T16:33:57.898Z</time>
      </trkpt>
      <trkpt lat="50.43186" lon="3.38511">
        <ele>16.593413</ele>
        <time>2020-06-01T16:34:00.301Z</time>
      </trkpt>
      <trkpt lat="50.43204" lon="3.38505">
        <ele>16.613572</ele>
        <time>2020-06-01T16:34:03.551Z</time>
      </trkpt>
      <trkpt lat="50.43222" lon="3.385">
        <ele>16.684479</ele>
        <time>2020-06-01T16:34:06.596Z</time>
      </trkpt>
      <trkpt lat="50.43231" lon="3.38497">
        <ele>16.720559</ele>
        <time>2020-06-01T16:34:08.217Z</time>
      </trkpt>
      <trkpt lat="50.43272" lon="3.38484">
        <ele>16.886023</ele>
        <time>2020-06-01T16:34:15.377Z</time>
      </trkpt>
      <trkpt lat="50.43306" lon="3.38474">
        <ele>17.021819</ele>
        <time>2020-06-01T16:34:21.415Z</time>
      </trkpt>
      <trkpt lat="50.43313" lon="3.38493">
        <ele>17.077353</ele>
        <time>2020-06-01T16:34:23.677Z</time>
      </trkpt>
      <trkpt lat="50.4332" lon="3.38516">
        <ele>17.140057</ele>
        <time>2020-06-01T16:34:26.487Z</time>
      </trkpt>
      <trkpt lat="50.43325" lon="3.38529">
        <ele>17.179948</ele>
        <time>2020-06-01T16:34:28.071Z</time>
      </trkpt>
      <trkpt lat="50.43381" lon="3.38662">
        <ele>17.132936</ele>
        <time>2020-06-01T16:34:42.659Z</time>
      </trkpt>
      <trkpt lat="50.4344" lon="3.38752">
        <ele>16.911111</ele>
        <time>2020-06-01T16:34:53.483Z</time>
      </trkpt>
      <trkpt lat="50.43451" lon="3.38771">
        <ele>16.86656</ele>
        <time>2020-06-01T16:34:55.638Z</time>
      </trkpt>
      <trkpt lat="50.43483" lon="3.38827">
        <ele>16.792536</ele>
        <time>2020-06-01T16:35:02.539Z</time>
      </trkpt>
      <trkpt lat="50.43523" lon="3.38912">
        <ele>16.725791</ele>
        <time>2020-06-01T16:35:12.200Z</time>
      </trkpt>
      <trkpt lat="50.43537" lon="3.38963">
        <ele>16.690676</ele>
        <time>2020-06-01T16:35:17.360Z</time>
      </trkpt>
      <trkpt lat="50.43542" lon="3.39006">
        <ele>16.662883</ele>
        <time>2020-06-01T16:35:21.674Z</time>
      </trkpt>
      <trkpt lat="50.4354" lon="3.39079">
        <ele>16.64844</ele>
        <time>2020-06-01T16:35:28.688Z</time>
      </trkpt>
      <trkpt lat="50.43538" lon="3.39122">
        <ele>16.650125</ele>
        <time>2020-06-01T16:35:32.889Z</time>
      </trkpt>
      <trkpt lat="50.43537" lon="3.39148">
        <ele>16.651132</ele>
        <time>2020-06-01T16:35:35.349Z</time>
      </trkpt>
      <trkpt lat="50.4349" lon="3.39309">
        <ele>16.634358</ele>
        <time>2020-06-01T16:35:52.232Z</time>
      </trkpt>
      <trkpt lat="50.43486" lon="3.39331">
        <ele>16.58715</ele>
        <time>2020-06-01T16:35:54.352Z</time>
      </trkpt>
      <trkpt lat="50.43482" lon="3.39372">
        <ele>16.501803</ele>
        <time>2020-06-01T16:35:58.019Z</time>
      </trkpt>
      <trkpt lat="50.43486" lon="3.39433">
        <ele>16.37751</ele>
        <time>2020-06-01T16:36:03.411Z</time>
      </trkpt>
      <trkpt lat="50.43507" lon="3.39544">
        <ele>16.142421</ele>
        <time>2020-06-01T16:36:13.478Z</time>
      </trkpt>
      <trkpt lat="50.43508" lon="3.39556">
        <ele>16.117801</ele>
        <time>2020-06-01T16:36:14.464Z</time>
      </trkpt>
      <trkpt lat="50.43503" lon="3.3957">
        <ele>16.086168</ele>
        <time>2020-06-01T16:36:15.741Z</time>
      </trkpt>
      <trkpt lat="50.43482" lon="3.3961">
        <ele>15.990466</ele>
        <time>2020-06-01T16:36:20.135Z</time>
      </trkpt>
      <trkpt lat="50.43427" lon="3.39684">
        <ele>15.777782</ele>
        <time>2020-06-01T16:36:29.900Z</time>
      </trkpt>
      <trkpt lat="50.4341" lon="3.39703">
        <ele>15.718152</ele>
        <time>2020-06-01T16:36:32.753Z</time>
      </trkpt>
      <trkpt lat="50.43362" lon="3.39736">
        <ele>15.565073</ele>
        <time>2020-06-01T16:36:40.338Z</time>
      </trkpt>
      <trkpt lat="50.43347" lon="3.39754">
        <ele>15.631524</ele>
        <time>2020-06-01T16:36:43.140Z</time>
      </trkpt>
      <trkpt lat="50.43336" lon="3.39777">
        <ele>15.706176</ele>
        <time>2020-06-01T16:36:46.033Z</time>
      </trkpt>
      <trkpt lat="50.43334" lon="3.39795">
        <ele>15.754166</ele>
        <time>2020-06-01T16:36:47.805Z</time>
      </trkpt>
      <trkpt lat="50.43334" lon="3.39811">
        <ele>15.798632</ele>
        <time>2020-06-01T16:36:49.459Z</time>
      </trkpt>
      <trkpt lat="50.43335" lon="3.39825">
        <ele>15.834184</ele>
        <time>2020-06-01T16:36:51.060Z</time>
      </trkpt>
      <trkpt lat="50.43346" lon="3.3985">
        <ele>15.914111</ele>
        <time>2020-06-01T16:36:54.169Z</time>
      </trkpt>
      <trkpt lat="50.43368" lon="3.39878">
        <ele>16.031299</ele>
        <time>2020-06-01T16:36:58.986Z</time>
      </trkpt>
      <trkpt lat="50.43436" lon="3.39946">
        <ele>16.429532</ele>
        <time>2020-06-01T16:37:12.852Z</time>
      </trkpt>
      <trkpt lat="50.43456" lon="3.39976">
        <ele>16.656759</ele>
        <time>2020-06-01T16:37:18.077Z</time>
      </trkpt>
      <trkpt lat="50.43498" lon="3.40094">
        <ele>17.366565</ele>
        <time>2020-06-01T16:37:33.915Z</time>
      </trkpt>
      <trkpt lat="50.43526" lon="3.40171">
        <ele>17.815802</ele>
        <time>2020-06-01T16:37:44.281Z</time>
      </trkpt>
      <trkpt lat="50.43542" lon="3.40212">
        <ele>17.963533</ele>
        <time>2020-06-01T16:37:49.570Z</time>
      </trkpt>
      <trkpt lat="50.43554" lon="3.40242">
        <ele>18.073227</ele>
        <time>2020-06-01T16:37:53.339Z</time>
      </trkpt>
      <trkpt lat="50.43571" lon="3.40265">
        <ele>18.181627</ele>
        <time>2020-06-01T16:37:57.282Z</time>
      </trkpt>
      <trkpt lat="50.43593" lon="3.40276">
        <ele>18.294711</ele>
        <time>2020-06-01T16:38:01.523Z</time>
      </trkpt>
      <trkpt lat="50.43593" lon="3.40276">
        <ele>18.294711</ele>
        <time>2020-06-01T16:38:01.536Z</time>
      </trkpt>
      <trkpt lat="50.43683" lon="3.40282">
        <ele>18.630403</ele>
        <time>2020-06-01T16:38:15.858Z</time>
      </trkpt>
      <trkpt lat="50.43729" lon="3.40299">
        <ele>18.51412</ele>
        <time>2020-06-01T16:38:22.687Z</time>
      </trkpt>
      <trkpt lat="50.43736" lon="3.40309">
        <ele>18.492391</ele>
        <time>2020-06-01T16:38:24.125Z</time>
      </trkpt>
      <trkpt lat="50.43743" lon="3.40341">
        <ele>18.439533</ele>
        <time>2020-06-01T16:38:27.011Z</time>
      </trkpt>
      <trkpt lat="50.43744" lon="3.40345">
        <ele>18.432458</ele>
        <time>2020-06-01T16:38:27.373Z</time>
      </trkpt>
      <trkpt lat="50.43747" lon="3.40373">
        <ele>18.388049</ele>
        <time>2020-06-01T16:38:29.945Z</time>
      </trkpt>
      <trkpt lat="50.43775" lon="3.40336">
        <ele>18.299591</ele>
        <time>2020-06-01T16:38:34.858Z</time>
      </trkpt>
      <trkpt lat="50.43797" lon="3.40314">
        <ele>18.236114</ele>
        <time>2020-06-01T16:38:38.383Z</time>
      </trkpt>
      <trkpt lat="50.43811" lon="3.40306">
        <ele>18.175611</ele>
        <time>2020-06-01T16:38:40.282Z</time>
      </trkpt>
      <trkpt lat="50.43827" lon="3.40302">
        <ele>18.098552</ele>
        <time>2020-06-01T16:38:42.426Z</time>
      </trkpt>
      <trkpt lat="50.43848" lon="3.40299">
        <ele>17.999313</ele>
        <time>2020-06-01T16:38:45.190Z</time>
      </trkpt>
      <trkpt lat="50.43949" lon="3.40286">
        <ele>17.518948</ele>
        <time>2020-06-01T16:38:58.623Z</time>
      </trkpt>
      <trkpt lat="50.4398" lon="3.40292">
        <ele>17.377625</ele>
        <time>2020-06-01T16:39:02.628Z</time>
      </trkpt>
      <trkpt lat="50.44132" lon="3.40486">
        <ele>17.192627</ele>
        <time>2020-06-01T16:39:31.100Z</time>
      </trkpt>
      <trkpt lat="50.44176" lon="3.40519">
        <ele>17.27635</ele>
        <time>2020-06-01T16:39:38.757Z</time>
      </trkpt>
      <trkpt lat="50.4421" lon="3.40529">
        <ele>17.335349</ele>
        <time>2020-06-01T16:39:44.259Z</time>
      </trkpt>
      <trkpt lat="50.44268" lon="3.40511">
        <ele>17.435459</ele>
        <time>2020-06-01T16:39:53.397Z</time>
      </trkpt>
      <trkpt lat="50.44304" lon="3.40483">
        <ele>17.505418</ele>
        <time>2020-06-01T16:39:59.860Z</time>
      </trkpt>
      <trkpt lat="50.44329" lon="3.40449">
        <ele>17.562772</ele>
        <time>2020-06-01T16:40:05.051Z</time>
      </trkpt>
      <trkpt lat="50.44343" lon="3.40415">
        <ele>17.608361</ele>
        <time>2020-06-01T16:40:09.205Z</time>
      </trkpt>
      <trkpt lat="50.44345" lon="3.40411">
        <ele>17.614345</ele>
        <time>2020-06-01T16:40:09.775Z</time>
      </trkpt>
      <trkpt lat="50.44349" lon="3.40406">
        <ele>17.622392</ele>
        <time>2020-06-01T16:40:10.445Z</time>
      </trkpt>
      <trkpt lat="50.44351" lon="3.40411">
        <ele>17.629203</ele>
        <time>2020-06-01T16:40:11.264Z</time>
      </trkpt>
      <trkpt lat="50.44354" lon="3.40415">
        <ele>17.635923</ele>
        <time>2020-06-01T16:40:12.098Z</time>
      </trkpt>
      <trkpt lat="50.44357" lon="3.40416">
        <ele>17.64237</ele>
        <time>2020-06-01T16:40:12.837Z</time>
      </trkpt>
      <trkpt lat="50.44364" lon="3.40414">
        <ele>17.654872</ele>
        <time>2020-06-01T16:40:14.370Z</time>
      </trkpt>
      <trkpt lat="50.44367" lon="3.40411">
        <ele>17.661101</ele>
        <time>2020-06-01T16:40:15.148Z</time>
      </trkpt>
      <trkpt lat="50.44369" lon="3.40406">
        <ele>17.667536</ele>
        <time>2020-06-01T16:40:15.928Z</time>
      </trkpt>
      <trkpt lat="50.4437" lon="3.40401">
        <ele>17.67389</ele>
        <time>2020-06-01T16:40:16.696Z</time>
      </trkpt>
      <trkpt lat="50.4437" lon="3.40395">
        <ele>17.681072</ele>
        <time>2020-06-01T16:40:17.579Z</time>
      </trkpt>
      <trkpt lat="50.44369" lon="3.40389">
        <ele>17.688259</ele>
        <time>2020-06-01T16:40:18.415Z</time>
      </trkpt>
      <trkpt lat="50.44366" lon="3.40384">
        <ele>17.694583</ele>
        <time>2020-06-01T16:40:19.195Z</time>
      </trkpt>
      <trkpt lat="50.44363" lon="3.40382">
        <ele>17.700877</ele>
        <time>2020-06-01T16:40:19.954Z</time>
      </trkpt>
      <trkpt lat="50.4436" lon="3.40376">
        <ele>17.709388</ele>
        <time>2020-06-01T16:40:20.655Z</time>
      </trkpt>
      <trkpt lat="50.44356" lon="3.40369">
        <ele>17.720109</ele>
        <time>2020-06-01T16:40:21.548Z</time>
      </trkpt>
      <trkpt lat="50.44355" lon="3.40366">
        <ele>17.723068</ele>
        <time>2020-06-01T16:40:21.821Z</time>
      </trkpt>
      <trkpt lat="50.44355" lon="3.40364">
        <ele>17.725647</ele>
        <time>2020-06-01T16:40:22.089Z</time>
      </trkpt>
      <trkpt lat="50.4435" lon="3.40349">
        <ele>17.744462</ele>
        <time>2020-06-01T16:40:23.754Z</time>
      </trkpt>
      <trkpt lat="50.44327" lon="3.40191">
        <ele>17.701541</ele>
        <time>2020-06-01T16:40:38.870Z</time>
      </trkpt>
      <trkpt lat="50.44324" lon="3.40172">
        <ele>17.688306</ele>
        <time>2020-06-01T16:40:40.685Z</time>
      </trkpt>
      <trkpt lat="50.44328" lon="3.40171">
        <ele>17.683923</ele>
        <time>2020-06-01T16:40:41.304Z</time>
      </trkpt>
      <trkpt lat="50.44336" lon="3.40169">
        <ele>17.675922</ele>
        <time>2020-06-01T16:40:42.310Z</time>
      </trkpt>
      <trkpt lat="50.44352" lon="3.40158">
        <ele>17.656687</ele>
        <time>2020-06-01T16:40:45.028Z</time>
      </trkpt>
      <trkpt lat="50.44411" lon="3.40092">
        <ele>17.552064</ele>
        <time>2020-06-01T16:40:55.061Z</time>
      </trkpt>
      <trkpt lat="50.44442" lon="3.40044">
        <ele>17.416612</ele>
        <time>2020-06-01T16:41:00.940Z</time>
      </trkpt>
      <trkpt lat="50.44506" lon="3.39996">
        <ele>17.196686</ele>
        <time>2020-06-01T16:41:10.588Z</time>
      </trkpt>
      <trkpt lat="50.44563" lon="3.39968">
        <ele>17.019278</ele>
        <time>2020-06-01T16:41:19.042Z</time>
      </trkpt>
      <trkpt lat="50.44582" lon="3.39958">
        <ele>16.982465</ele>
        <time>2020-06-01T16:41:21.759Z</time>
      </trkpt>
      <trkpt lat="50.44585" lon="3.39956">
        <ele>16.975192</ele>
        <time>2020-06-01T16:41:22.482Z</time>
      </trkpt>
      <trkpt lat="50.44668" lon="3.39898">
        <ele>16.80728</ele>
        <time>2020-06-01T16:41:35.308Z</time>
      </trkpt>
      <trkpt lat="50.44711" lon="3.39885">
        <ele>16.727432</ele>
        <time>2020-06-01T16:41:41.341Z</time>
      </trkpt>
      <trkpt lat="50.44735" lon="3.39886">
        <ele>16.685722</ele>
        <time>2020-06-01T16:41:44.865Z</time>
      </trkpt>
      <trkpt lat="50.4477" lon="3.39909">
        <ele>16.627942</ele>
        <time>2020-06-01T16:41:50.260Z</time>
      </trkpt>
      <trkpt lat="50.44788" lon="3.39945">
        <ele>16.583799</ele>
        <time>2020-06-01T16:41:54.340Z</time>
      </trkpt>
      <trkpt lat="50.44798" lon="3.39987">
        <ele>16.53989</ele>
        <time>2020-06-01T16:41:58.479Z</time>
      </trkpt>
      <trkpt lat="50.44805" lon="3.40058">
        <ele>16.470643</ele>
        <time>2020-06-01T16:42:04.996Z</time>
      </trkpt>
      <trkpt lat="50.44779" lon="3.40171">
        <ele>16.423002</ele>
        <time>2020-06-01T16:42:16.157Z</time>
      </trkpt>
      <trkpt lat="50.44776" lon="3.40217">
        <ele>16.420901</ele>
        <time>2020-06-01T16:42:20.751Z</time>
      </trkpt>
      <trkpt lat="50.44783" lon="3.40239">
        <ele>16.419833</ele>
        <time>2020-06-01T16:42:23.098Z</time>
      </trkpt>
      <trkpt lat="50.44815" lon="3.40277">
        <ele>16.416946</ele>
        <time>2020-06-01T16:42:29.006Z</time>
      </trkpt>
      <trkpt lat="50.4489" lon="3.40344">
        <ele>16.4124</ele>
        <time>2020-06-01T16:42:41.741Z</time>
      </trkpt>
      <trkpt lat="50.44904" lon="3.40352">
        <ele>16.411941</ele>
        <time>2020-06-01T16:42:44.024Z</time>
      </trkpt>
      <trkpt lat="50.44909" lon="3.40355">
        <ele>16.411752</ele>
        <time>2020-06-01T16:42:44.874Z</time>
      </trkpt>
      <trkpt lat="50.44921" lon="3.40362">
        <ele>16.411366</ele>
        <time>2020-06-01T16:42:46.715Z</time>
      </trkpt>
      <trkpt lat="50.44925" lon="3.40366">
        <ele>16.411219</ele>
        <time>2020-06-01T16:42:47.384Z</time>
      </trkpt>
      <trkpt lat="50.44929" lon="3.40364">
        <ele>16.411086</ele>
        <time>2020-06-01T16:42:48.043Z</time>
      </trkpt>
      <trkpt lat="50.44932" lon="3.40358">
        <ele>16.410932</ele>
        <time>2020-06-01T16:42:48.806Z</time>
      </trkpt>
      <trkpt lat="50.44933" lon="3.40352">
        <ele>16.410811</ele>
        <time>2020-06-01T16:42:49.457Z</time>
      </trkpt>
      <trkpt lat="50.44936" lon="3.40343">
        <ele>16.410606</ele>
        <time>2020-06-01T16:42:50.369Z</time>
      </trkpt>
      <trkpt lat="50.44942" lon="3.40318">
        <ele>16.410059</ele>
        <time>2020-06-01T16:42:52.961Z</time>
      </trkpt>
      <trkpt lat="50.44952" lon="3.40274">
        <ele>16.409132</ele>
        <time>2020-06-01T16:42:57.436Z</time>
      </trkpt>
      <trkpt lat="50.44991" lon="3.40144">
        <ele>16.435455</ele>
        <time>2020-06-01T16:43:10.833Z</time>
      </trkpt>
      <trkpt lat="50.45019" lon="3.4007">
        <ele>16.463405</ele>
        <time>2020-06-01T16:43:19.418Z</time>
      </trkpt>
      <trkpt lat="50.45042" lon="3.40041">
        <ele>16.478195</ele>
        <time>2020-06-01T16:43:23.845Z</time>
      </trkpt>
      <trkpt lat="50.45119" lon="3.39987">
        <ele>16.539791</ele>
        <time>2020-06-01T16:43:36.341Z</time>
      </trkpt>
      <trkpt lat="50.45149" lon="3.39949">
        <ele>16.576431</ele>
        <time>2020-06-01T16:43:42.102Z</time>
      </trkpt>
      <trkpt lat="50.45165" lon="3.39897">
        <ele>16.610985</ele>
        <time>2020-06-01T16:43:47.744Z</time>
      </trkpt>
      <trkpt lat="50.45176" lon="3.39757">
        <ele>16.672486</ele>
        <time>2020-06-01T16:44:01.659Z</time>
      </trkpt>
      <trkpt lat="50.45189" lon="3.39716">
        <ele>16.676696</ele>
        <time>2020-06-01T16:44:06.101Z</time>
      </trkpt>
      <trkpt lat="50.45193" lon="3.3971">
        <ele>16.67752</ele>
        <time>2020-06-01T16:44:07.064Z</time>
      </trkpt>
      <trkpt lat="50.45207" lon="3.39701">
        <ele>16.679724</ele>
        <time>2020-06-01T16:44:09.432Z</time>
      </trkpt>
      <trkpt lat="50.45256" lon="3.39668">
        <ele>16.68735</ele>
        <time>2020-06-01T16:44:17.167Z</time>
      </trkpt>
      <trkpt lat="50.45337" lon="3.39553">
        <ele>16.557938</ele>
        <time>2020-06-01T16:44:32.698Z</time>
      </trkpt>
      <trkpt lat="50.45344" lon="3.39539">
        <ele>16.53237</ele>
        <time>2020-06-01T16:44:34.264Z</time>
      </trkpt>
      <trkpt lat="50.45361" lon="3.39509">
        <ele>16.475634</ele>
        <time>2020-06-01T16:44:37.762Z</time>
      </trkpt>
      <trkpt lat="50.4541" lon="3.39414">
        <ele>16.301894</ele>
        <time>2020-06-01T16:44:48.490Z</time>
      </trkpt>
      <trkpt lat="50.45554" lon="3.39277">
        <ele>16.368056</ele>
        <time>2020-06-01T16:45:13.798Z</time>
      </trkpt>
      <trkpt lat="50.45594" lon="3.39222">
        <ele>16.488824</ele>
        <time>2020-06-01T16:45:22.247Z</time>
      </trkpt>
      <trkpt lat="50.45597" lon="3.39214">
        <ele>16.507306</ele>
        <time>2020-06-01T16:45:23.384Z</time>
      </trkpt>
      <trkpt lat="50.45603" lon="3.39204">
        <ele>16.533802</ele>
        <time>2020-06-01T16:45:24.746Z</time>
      </trkpt>
      <trkpt lat="50.457" lon="3.38908">
        <ele>17.029226</ele>
        <time>2020-06-01T16:45:59.064Z</time>
      </trkpt>
      <trkpt lat="50.4573" lon="3.38724">
        <ele>17.049505</ele>
        <time>2020-06-01T16:46:16.737Z</time>
      </trkpt>
      <trkpt lat="50.45768" lon="3.38628">
        <ele>16.759395</ele>
        <time>2020-06-01T16:46:26.501Z</time>
      </trkpt>
      <trkpt lat="50.45772" lon="3.38619">
        <ele>16.729246</ele>
        <time>2020-06-01T16:46:27.488Z</time>
      </trkpt>
      <trkpt lat="50.45795" lon="3.3858">
        <ele>16.592462</ele>
        <time>2020-06-01T16:46:33.786Z</time>
      </trkpt>
      <trkpt lat="50.45837" lon="3.38503">
        <ele>16.338435</ele>
        <time>2020-06-01T16:46:45.660Z</time>
      </trkpt>
      <trkpt lat="50.45848" lon="3.38464">
        <ele>16.237554</ele>
        <time>2020-06-01T16:46:50.588Z</time>
      </trkpt>
      <trkpt lat="50.45852" lon="3.38431">
        <ele>16.156255</ele>
        <time>2020-06-01T16:46:54.588Z</time>
      </trkpt>
      <trkpt lat="50.45827" lon="3.38292">
        <ele>15.811179</ele>
        <time>2020-06-01T16:47:12.083Z</time>
      </trkpt>
      <trkpt lat="50.45809" lon="3.38141">
        <ele>15.78197</ele>
        <time>2020-06-01T16:47:31.797Z</time>
      </trkpt>
      <trkpt lat="50.45812" lon="3.38099">
        <ele>15.792775</ele>
        <time>2020-06-01T16:47:37.338Z</time>
      </trkpt>
      <trkpt lat="50.45865" lon="3.37925">
        <ele>15.955896</ele>
        <time>2020-06-01T16:48:03.010Z</time>
      </trkpt>
      <trkpt lat="50.45874" lon="3.37865">
        <ele>16.057468</ele>
        <time>2020-06-01T16:48:11.257Z</time>
      </trkpt>
      <trkpt lat="50.45873" lon="3.37854">
        <ele>16.0764</ele>
        <time>2020-06-01T16:48:12.819Z</time>
      </trkpt>
      <trkpt lat="50.45871" lon="3.37833">
        <ele>16.111432</ele>
        <time>2020-06-01T16:48:14.908Z</time>
      </trkpt>
      <trkpt lat="50.4583" lon="3.37615">
        <ele>16.578914</ele>
        <time>2020-06-01T16:48:38.874Z</time>
      </trkpt>
      <trkpt lat="50.45801" lon="3.37475">
        <ele>16.935262</ele>
        <time>2020-06-01T16:48:54.287Z</time>
      </trkpt>
      <trkpt lat="50.45842" lon="3.37458">
        <ele>17.012643</ele>
        <time>2020-06-01T16:49:01.144Z</time>
      </trkpt>
      <trkpt lat="50.45988" lon="3.37398">
        <ele>17.18466</ele>
        <time>2020-06-01T16:49:23.833Z</time>
      </trkpt>
      <trkpt lat="50.4601" lon="3.37381">
        <ele>17.189983</ele>
        <time>2020-06-01T16:49:27.435Z</time>
      </trkpt>
      <trkpt lat="50.46072" lon="3.37291">
        <ele>17.208202</ele>
        <time>2020-06-01T16:49:39.880Z</time>
      </trkpt>
      <trkpt lat="50.46093" lon="3.37259">
        <ele>17.214501</ele>
        <time>2020-06-01T16:49:44.220Z</time>
      </trkpt>
      <trkpt lat="50.4609" lon="3.37221">
        <ele>17.219797</ele>
        <time>2020-06-01T16:49:47.930Z</time>
      </trkpt>
      <trkpt lat="50.46101" lon="3.37173">
        <ele>17.250129</ele>
        <time>2020-06-01T16:49:52.834Z</time>
      </trkpt>
      <trkpt lat="50.46162" lon="3.37003">
        <ele>17.430898</ele>
        <time>2020-06-01T16:50:11.835Z</time>
      </trkpt>
      <trkpt lat="50.46181" lon="3.3698">
        <ele>17.466782</ele>
        <time>2020-06-01T16:50:15.649Z</time>
      </trkpt>
      <trkpt lat="50.46236" lon="3.36937">
        <ele>17.632289</ele>
        <time>2020-06-01T16:50:25.364Z</time>
      </trkpt>
      <trkpt lat="50.46317" lon="3.36821">
        <ele>17.96503</ele>
        <time>2020-06-01T16:50:43.154Z</time>
      </trkpt>
      <trkpt lat="50.46328" lon="3.3681">
        <ele>18.005038</ele>
        <time>2020-06-01T16:50:45.398Z</time>
      </trkpt>
      <trkpt lat="50.46347" lon="3.36796">
        <ele>18.045619</ele>
        <time>2020-06-01T16:50:48.738Z</time>
      </trkpt>
      <trkpt lat="50.46452" lon="3.36731">
        <ele>18.170429</ele>
        <time>2020-06-01T16:51:06.478Z</time>
      </trkpt>
      <trkpt lat="50.46467" lon="3.36728">
        <ele>18.187387</ele>
        <time>2020-06-01T16:51:08.944Z</time>
      </trkpt>
      <trkpt lat="50.46482" lon="3.36721">
        <ele>18.204868</ele>
        <time>2020-06-01T16:51:11.120Z</time>
      </trkpt>
      <trkpt lat="50.46504" lon="3.36691">
        <ele>18.209289</ele>
        <time>2020-06-01T16:51:15.295Z</time>
      </trkpt>
      <trkpt lat="50.46543" lon="3.36611">
        <ele>17.948332</ele>
        <time>2020-06-01T16:51:24.064Z</time>
      </trkpt>
      <trkpt lat="50.4655" lon="3.36586">
        <ele>17.876294</ele>
        <time>2020-06-01T16:51:26.298Z</time>
      </trkpt>
      <trkpt lat="50.46553" lon="3.36575">
        <ele>17.846762</ele>
        <time>2020-06-01T16:51:27.300Z</time>
      </trkpt>
      <trkpt lat="50.46636" lon="3.36231">
        <ele>17.028685</ele>
        <time>2020-06-01T16:51:58.610Z</time>
      </trkpt>
      <trkpt lat="50.46641" lon="3.36205">
        <ele>16.973899</ele>
        <time>2020-06-01T16:52:01.008Z</time>
      </trkpt>
      <trkpt lat="50.46643" lon="3.36196">
        <ele>16.954525</ele>
        <time>2020-06-01T16:52:02.267Z</time>
      </trkpt>
      <trkpt lat="50.46672" lon="3.36146">
        <ele>17.098602</ele>
        <time>2020-06-01T16:52:09.108Z</time>
      </trkpt>
      <trkpt lat="50.46856" lon="3.35927">
        <ele>18.10168</ele>
        <time>2020-06-01T16:52:48.687Z</time>
      </trkpt>
      <trkpt lat="50.46894" lon="3.35886">
        <ele>18.276943</ele>
        <time>2020-06-01T16:52:56.211Z</time>
      </trkpt>
      <trkpt lat="50.46912" lon="3.35871">
        <ele>18.353602</ele>
        <time>2020-06-01T16:52:59.307Z</time>
      </trkpt>
      <trkpt lat="50.46936" lon="3.35855">
        <ele>18.450729</ele>
        <time>2020-06-01T16:53:03.291Z</time>
      </trkpt>
      <trkpt lat="50.46998" lon="3.35811">
        <ele>18.350722</ele>
        <time>2020-06-01T16:53:13.400Z</time>
      </trkpt>
      <trkpt lat="50.47032" lon="3.35772">
        <ele>18.285737</ele>
        <time>2020-06-01T16:53:19.178Z</time>
      </trkpt>
      <trkpt lat="50.47114" lon="3.35632">
        <ele>18.118451</ele>
        <time>2020-06-01T16:53:35.802Z</time>
      </trkpt>
      <trkpt lat="50.47189" lon="3.35539">
        <ele>18.011065</ele>
        <time>2020-06-01T16:53:49.652Z</time>
      </trkpt>
      <trkpt lat="50.4722" lon="3.35499">
        <ele>18.003415</ele>
        <time>2020-06-01T16:53:55.791Z</time>
      </trkpt>
      <trkpt lat="50.47243" lon="3.35471">
        <ele>18.15124</ele>
        <time>2020-06-01T16:54:00.410Z</time>
      </trkpt>
      <trkpt lat="50.47273" lon="3.35442">
        <ele>18.328789</ele>
        <time>2020-06-01T16:54:06.095Z</time>
      </trkpt>
      <trkpt lat="50.47292" lon="3.35427">
        <ele>18.436294</ele>
        <time>2020-06-01T16:54:09.629Z</time>
      </trkpt>
      <trkpt lat="50.47326" lon="3.35407">
        <ele>18.621959</ele>
        <time>2020-06-01T16:54:16.034Z</time>
      </trkpt>
      <trkpt lat="50.47352" lon="3.35393">
        <ele>18.759094</ele>
        <time>2020-06-01T16:54:20.903Z</time>
      </trkpt>
      <trkpt lat="50.47409" lon="3.35345">
        <ele>19.15088</ele>
        <time>2020-06-01T16:54:32.768Z</time>
      </trkpt>
      <trkpt lat="50.47423" lon="3.35327">
        <ele>19.275676</ele>
        <time>2020-06-01T16:54:36.191Z</time>
      </trkpt>
      <trkpt lat="50.47442" lon="3.35289">
        <ele>19.484181</ele>
        <time>2020-06-01T16:54:41.535Z</time>
      </trkpt>
      <trkpt lat="50.47444" lon="3.35285">
        <ele>19.504765</ele>
        <time>2020-06-01T16:54:42.233Z</time>
      </trkpt>
      <trkpt lat="50.47454" lon="3.3526">
        <ele>19.63044</ele>
        <time>2020-06-01T16:54:45.312Z</time>
      </trkpt>
      <trkpt lat="50.47468" lon="3.35217">
        <ele>19.837257</ele>
        <time>2020-06-01T16:54:50.721Z</time>
      </trkpt>
      <trkpt lat="50.4748" lon="3.35192">
        <ele>19.969967</ele>
        <time>2020-06-01T16:54:54.017Z</time>
      </trkpt>
      <trkpt lat="50.47498" lon="3.35165">
        <ele>20.114062</ele>
        <time>2020-06-01T16:54:58.209Z</time>
      </trkpt>
      <trkpt lat="50.4752" lon="3.35136">
        <ele>20.2079</ele>
        <time>2020-06-01T16:55:03.165Z</time>
      </trkpt>
      <trkpt lat="50.47521" lon="3.35135">
        <ele>20.210611</ele>
        <time>2020-06-01T16:55:03.248Z</time>
      </trkpt>
      <trkpt lat="50.47545" lon="3.35103">
        <ele>20.314002</ele>
        <time>2020-06-01T16:55:08.677Z</time>
      </trkpt>
      <trkpt lat="50.47678" lon="3.34895">
        <ele>20.890988</ele>
        <time>2020-06-01T16:55:37.966Z</time>
      </trkpt>
      <trkpt lat="50.47745" lon="3.34702">
        <ele>21.355974</ele>
        <time>2020-06-01T16:56:00.654Z</time>
      </trkpt>
      <trkpt lat="50.4778" lon="3.34614">
        <ele>21.684077</ele>
        <time>2020-06-01T16:56:11.860Z</time>
      </trkpt>
      <trkpt lat="50.47812" lon="3.34585">
        <ele>21.864177</ele>
        <time>2020-06-01T16:56:18.022Z</time>
      </trkpt>
      <trkpt lat="50.47892" lon="3.34562">
        <ele>22.364672</ele>
        <time>2020-06-01T16:56:31.996Z</time>
      </trkpt>
      <trkpt lat="50.47917" lon="3.34547">
        <ele>22.567904</ele>
        <time>2020-06-01T16:56:36.888Z</time>
      </trkpt>
      <trkpt lat="50.47955" lon="3.34464">
        <ele>23.052245</ele>
        <time>2020-06-01T16:56:48.586Z</time>
      </trkpt>
      <trkpt lat="50.4797" lon="3.3443">
        <ele>23.25058</ele>
        <time>2020-06-01T16:56:53.390Z</time>
      </trkpt>
      <trkpt lat="50.48003" lon="3.3436">
        <ele>23.701888</ele>
        <time>2020-06-01T16:57:03.361Z</time>
      </trkpt>
      <trkpt lat="50.48067" lon="3.34233">
        <ele>24.584881</ele>
        <time>2020-06-01T16:57:22.367Z</time>
      </trkpt>
      <trkpt lat="50.48126" lon="3.34153">
        <ele>25.138946</ele>
        <time>2020-06-01T16:57:36.668Z</time>
      </trkpt>
      <trkpt lat="50.48139" lon="3.34124">
        <ele>25.258144</ele>
        <time>2020-06-01T16:57:40.612Z</time>
      </trkpt>
      <trkpt lat="50.48165" lon="3.34141">
        <ele>25.403508</ele>
        <time>2020-06-01T16:57:45.499Z</time>
      </trkpt>
      <trkpt lat="50.48187" lon="3.34152">
        <ele>25.523601</ele>
        <time>2020-06-01T16:57:49.369Z</time>
      </trkpt>
      <trkpt lat="50.48218" lon="3.34187">
        <ele>25.72429</ele>
        <time>2020-06-01T16:57:55.780Z</time>
      </trkpt>
      <trkpt lat="50.4829" lon="3.34308">
        <ele>25.785384</ele>
        <time>2020-06-01T16:58:11.940Z</time>
      </trkpt>
      <trkpt lat="50.48294" lon="3.34327">
        <ele>25.767312</ele>
        <time>2020-06-01T16:58:13.676Z</time>
      </trkpt>
      <trkpt lat="50.48286" lon="3.34365">
        <ele>25.731122</ele>
        <time>2020-06-01T16:58:17.116Z</time>
      </trkpt>
      <trkpt lat="50.48251" lon="3.34428">
        <ele>25.653638</ele>
        <time>2020-06-01T16:58:24.430Z</time>
      </trkpt>
      <trkpt lat="50.48253" lon="3.34449">
        <ele>25.634679</ele>
        <time>2020-06-01T16:58:26.211Z</time>
      </trkpt>
      <trkpt lat="50.4829" lon="3.34541">
        <ele>25.360159</ele>
        <time>2020-06-01T16:58:35.612Z</time>
      </trkpt>
      <trkpt lat="50.48311" lon="3.34618">
        <ele>25.148617</ele>
        <time>2020-06-01T16:58:42.617Z</time>
      </trkpt>
      <trkpt lat="50.48323" lon="3.34751">
        <ele>24.846955</ele>
        <time>2020-06-01T16:58:54.500Z</time>
      </trkpt>
      <trkpt lat="50.48323" lon="3.34768">
        <ele>24.821995</ele>
        <time>2020-06-01T16:58:55.887Z</time>
      </trkpt>
      <trkpt lat="50.4832" lon="3.34811">
        <ele>24.756645</ele>
        <time>2020-06-01T16:58:59.843Z</time>
      </trkpt>
      <trkpt lat="50.48316" lon="3.34858">
        <ele>24.686721</ele>
        <time>2020-06-01T16:59:03.997Z</time>
      </trkpt>
      <trkpt lat="50.48302" lon="3.34928">
        <ele>24.576053</ele>
        <time>2020-06-01T16:59:10.510Z</time>
      </trkpt>
      <trkpt lat="50.48287" lon="3.34969">
        <ele>24.504112</ele>
        <time>2020-06-01T16:59:14.854Z</time>
      </trkpt>
      <trkpt lat="50.48284" lon="3.34982">
        <ele>24.486653</ele>
        <time>2020-06-01T16:59:15.987Z</time>
      </trkpt>
      <trkpt lat="50.48286" lon="3.35002">
        <ele>24.510936</ele>
        <time>2020-06-01T16:59:17.823Z</time>
      </trkpt>
      <trkpt lat="50.48293" lon="3.35025">
        <ele>24.541642</ele>
        <time>2020-06-01T16:59:20.327Z</time>
      </trkpt>
      <trkpt lat="50.48339" lon="3.35152">
        <ele>24.718445</ele>
        <time>2020-06-01T16:59:34.909Z</time>
      </trkpt>
      <trkpt lat="50.48371" lon="3.35241">
        <ele>24.857047</ele>
        <time>2020-06-01T16:59:45.548Z</time>
      </trkpt>
      <trkpt lat="50.48391" lon="3.35282">
        <ele>24.983001</ele>
        <time>2020-06-01T16:59:51.113Z</time>
      </trkpt>
      <trkpt lat="50.48405" lon="3.35308">
        <ele>25.063575</ele>
        <time>2020-06-01T16:59:54.737Z</time>
      </trkpt>
      <trkpt lat="50.48429" lon="3.35349">
        <ele>25.196742</ele>
        <time>2020-06-01T17:00:00.683Z</time>
      </trkpt>
      <trkpt lat="50.48476" lon="3.35429">
        <ele>25.461194</ele>
        <time>2020-06-01T17:00:12.066Z</time>
      </trkpt>
      <trkpt lat="50.48476" lon="3.35429">
        <ele>25.461194</ele>
        <time>2020-06-01T17:00:12.088Z</time>
      </trkpt>
      <trkpt lat="50.48485" lon="3.35443">
        <ele>25.509005</ele>
        <time>2020-06-01T17:00:14.083Z</time>
      </trkpt>
      <trkpt lat="50.485" lon="3.35452">
        <ele>25.475099</ele>
        <time>2020-06-01T17:00:16.349Z</time>
      </trkpt>
      <trkpt lat="50.48577" lon="3.35417">
        <ele>25.299801</ele>
        <time>2020-06-01T17:00:27.911Z</time>
      </trkpt>
      <trkpt lat="50.48591" lon="3.35416">
        <ele>25.269674</ele>
        <time>2020-06-01T17:00:29.832Z</time>
      </trkpt>
      <trkpt lat="50.48588" lon="3.35427">
        <ele>25.253735</ele>
        <time>2020-06-01T17:00:30.755Z</time>
      </trkpt>
      <trkpt lat="50.48577" lon="3.35632">
        <ele>24.813868</ele>
        <time>2020-06-01T17:00:48.340Z</time>
      </trkpt>
      <trkpt lat="50.48476" lon="3.35877">
        <ele>23.883286</ele>
        <time>2020-06-01T17:01:13.234Z</time>
      </trkpt>
      <trkpt lat="50.4844" lon="3.36037">
        <ele>23.243747</ele>
        <time>2020-06-01T17:01:27.208Z</time>
      </trkpt>
      <trkpt lat="50.48415" lon="3.36123">
        <ele>22.697231</ele>
        <time>2020-06-01T17:01:34.855Z</time>
      </trkpt>
      <trkpt lat="50.4841" lon="3.3614">
        <ele>22.593499</ele>
        <time>2020-06-01T17:01:36.178Z</time>
      </trkpt>
      <trkpt lat="50.48385" lon="3.36214">
        <ele>22.107159</ele>
        <time>2020-06-01T17:01:42.957Z</time>
      </trkpt>
      <trkpt lat="50.48379" lon="3.36227">
        <ele>22.020247</ele>
        <time>2020-06-01T17:01:44.082Z</time>
      </trkpt>
      <trkpt lat="50.48373" lon="3.36241">
        <ele>21.916599</ele>
        <time>2020-06-01T17:01:46.001Z</time>
      </trkpt>
      <trkpt lat="50.48272" lon="3.36423">
        <ele>20.819349</ele>
        <time>2020-06-01T17:02:13.119Z</time>
      </trkpt>
      <trkpt lat="50.48173" lon="3.36555">
        <ele>20.518595</ele>
        <time>2020-06-01T17:02:38.692Z</time>
      </trkpt>
      <trkpt lat="50.48161" lon="3.36588">
        <ele>20.544301</ele>
        <time>2020-06-01T17:02:43.728Z</time>
      </trkpt>
      <trkpt lat="50.48151" lon="3.36663">
        <ele>20.596353</ele>
        <time>2020-06-01T17:02:54.046Z</time>
      </trkpt>
      <trkpt lat="50.48143" lon="3.36713">
        <ele>20.631622</ele>
        <time>2020-06-01T17:03:01.133Z</time>
      </trkpt>
      <trkpt lat="50.48132" lon="3.36793">
        <ele>20.76848</ele>
        <time>2020-06-01T17:03:12.584Z</time>
      </trkpt>
      <trkpt lat="50.48117" lon="3.3686">
        <ele>20.886676</ele>
        <time>2020-06-01T17:03:22.308Z</time>
      </trkpt>
      <trkpt lat="50.48069" lon="3.3701">
        <ele>21.059676</ele>
        <time>2020-06-01T17:03:44.732Z</time>
      </trkpt>
      <trkpt lat="50.4804" lon="3.37082">
        <ele>20.940933</ele>
        <time>2020-06-01T17:03:55.429Z</time>
      </trkpt>
      <trkpt lat="50.47943" lon="3.37285">
        <ele>20.465734</ele>
        <time>2020-06-01T17:04:26.068Z</time>
      </trkpt>
      <trkpt lat="50.47896" lon="3.37358">
        <ele>20.184113</ele>
        <time>2020-06-01T17:04:38.359Z</time>
      </trkpt>
      <trkpt lat="50.47871" lon="3.37382">
        <ele>20.060319</ele>
        <time>2020-06-01T17:04:43.772Z</time>
      </trkpt>
      <trkpt lat="50.4784" lon="3.37402">
        <ele>19.922882</ele>
        <time>2020-06-01T17:04:50.112Z</time>
      </trkpt>
      <trkpt lat="50.47705" lon="3.37474">
        <ele>19.449264</ele>
        <time>2020-06-01T17:05:17.141Z</time>
      </trkpt>
      <trkpt lat="50.47664" lon="3.37496">
        <ele>19.326451</ele>
        <time>2020-06-01T17:05:25.672Z</time>
      </trkpt>
      <trkpt lat="50.47627" lon="3.3752">
        <ele>19.259303</ele>
        <time>2020-06-01T17:05:33.498Z</time>
      </trkpt>
      <trkpt lat="50.47622" lon="3.37529">
        <ele>19.246089</ele>
        <time>2020-06-01T17:05:35.026Z</time>
      </trkpt>
      <trkpt lat="50.47619" lon="3.37534">
        <ele>19.238262</ele>
        <time>2020-06-01T17:05:35.953Z</time>
      </trkpt>
      <trkpt lat="50.47611" lon="3.37549">
        <ele>19.218516</ele>
        <time>2020-06-01T17:05:38.251Z</time>
      </trkpt>
      <trkpt lat="50.47606" lon="3.37568">
        <ele>19.195964</ele>
        <time>2020-06-01T17:05:40.904Z</time>
      </trkpt>
      <trkpt lat="50.47586" lon="3.37645">
        <ele>19.107003</ele>
        <time>2020-06-01T17:05:51.371Z</time>
      </trkpt>
      <trkpt lat="50.47437" lon="3.38201">
        <ele>18.60918</ele>
        <time>2020-06-01T17:07:06.925Z</time>
      </trkpt>
      <trkpt lat="50.4736" lon="3.38488">
        <ele>19.00342</ele>
        <time>2020-06-01T17:07:48.990Z</time>
      </trkpt>
      <trkpt lat="50.47358" lon="3.38493">
        <ele>19.012676</ele>
        <time>2020-06-01T17:07:49.777Z</time>
      </trkpt>
      <trkpt lat="50.47357" lon="3.38496">
        <ele>19.016659</ele>
        <time>2020-06-01T17:07:50.115Z</time>
      </trkpt>
      <trkpt lat="50.47295" lon="3.38732">
        <ele>19.425672</ele>
        <time>2020-06-01T17:08:24.948Z</time>
      </trkpt>
      <trkpt lat="50.47288" lon="3.38767">
        <ele>19.439006</ele>
        <time>2020-06-01T17:08:29.874Z</time>
      </trkpt>
      <trkpt lat="50.47282" lon="3.38802">
        <ele>19.439878</ele>
        <time>2020-06-01T17:08:34.669Z</time>
      </trkpt>
      <trkpt lat="50.47272" lon="3.38828">
        <ele>19.440611</ele>
        <time>2020-06-01T17:08:38.553Z</time>
      </trkpt>
      <trkpt lat="50.47216" lon="3.3892">
        <ele>19.443678</ele>
        <time>2020-06-01T17:08:54.908Z</time>
      </trkpt>
      <trkpt lat="50.47176" lon="3.39033">
        <ele>19.443131</ele>
        <time>2020-06-01T17:09:11.163Z</time>
      </trkpt>
      <trkpt lat="50.47152" lon="3.39156">
        <ele>19.439552</ele>
        <time>2020-06-01T17:09:27.592Z</time>
      </trkpt>
      <trkpt lat="50.47115" lon="3.39281">
        <ele>19.492692</ele>
        <time>2020-06-01T17:09:46.146Z</time>
      </trkpt>
      <trkpt lat="50.47091" lon="3.39397">
        <ele>19.617835</ele>
        <time>2020-06-01T17:10:02.640Z</time>
      </trkpt>
      <trkpt lat="50.47083" lon="3.39461">
        <ele>19.684809</ele>
        <time>2020-06-01T17:10:11.267Z</time>
      </trkpt>
      <trkpt lat="50.47082" lon="3.39468">
        <ele>19.692293</ele>
        <time>2020-06-01T17:10:12.215Z</time>
      </trkpt>
      <trkpt lat="50.47074" lon="3.39512">
        <ele>19.705236</ele>
        <time>2020-06-01T17:10:18.129Z</time>
      </trkpt>
      <trkpt lat="50.47176" lon="3.39626">
        <ele>19.324983</ele>
        <time>2020-06-01T17:10:35.718Z</time>
      </trkpt>
      <trkpt lat="50.47183" lon="3.39634">
        <ele>19.299716</ele>
        <time>2020-06-01T17:10:36.831Z</time>
      </trkpt>
      <trkpt lat="50.47325" lon="3.39806">
        <ele>18.340097</ele>
        <time>2020-06-01T17:11:00.247Z</time>
      </trkpt>
      <trkpt lat="50.47365" lon="3.39855">
        <ele>18.05714</ele>
        <time>2020-06-01T17:11:06.609Z</time>
      </trkpt>
      <trkpt lat="50.47386" lon="3.39879">
        <ele>17.943575</ele>
        <time>2020-06-01T17:11:09.985Z</time>
      </trkpt>
      <trkpt lat="50.4741" lon="3.39903">
        <ele>17.819149</ele>
        <time>2020-06-01T17:11:13.743Z</time>
      </trkpt>
      <trkpt lat="50.47446" lon="3.39936">
        <ele>17.633176</ele>
        <time>2020-06-01T17:11:19.428Z</time>
      </trkpt>
      <trkpt lat="50.47487" lon="3.39974">
        <ele>17.42552</ele>
        <time>2020-06-01T17:11:25.877Z</time>
      </trkpt>
      <trkpt lat="50.47497" lon="3.39983">
        <ele>17.373179</ele>
        <time>2020-06-01T17:11:27.577Z</time>
      </trkpt>
      <trkpt lat="50.47533" lon="3.40017">
        <ele>17.331423</ele>
        <time>2020-06-01T17:11:33.353Z</time>
      </trkpt>
      <trkpt lat="50.47603" lon="3.40105">
        <ele>17.378357</ele>
        <time>2020-06-01T17:11:46.996Z</time>
      </trkpt>
      <trkpt lat="50.47651" lon="3.40175">
        <ele>17.41526</ele>
        <time>2020-06-01T17:11:57.423Z</time>
      </trkpt>
      <trkpt lat="50.47655" lon="3.4018">
        <ele>17.421045</ele>
        <time>2020-06-01T17:11:58.247Z</time>
      </trkpt>
      <trkpt lat="50.47697" lon="3.4024">
        <ele>17.486411</ele>
        <time>2020-06-01T17:12:06.952Z</time>
      </trkpt>
      <trkpt lat="50.47702" lon="3.40246">
        <ele>17.49278</ele>
        <time>2020-06-01T17:12:07.904Z</time>
      </trkpt>
      <trkpt lat="50.47707" lon="3.40255">
        <ele>17.501877</ele>
        <time>2020-06-01T17:12:09.062Z</time>
      </trkpt>
      <trkpt lat="50.47729" lon="3.40294">
        <ele>17.540449</ele>
        <time>2020-06-01T17:12:14.182Z</time>
      </trkpt>
      <trkpt lat="50.47856" lon="3.40762">
        <ele>17.756526</ele>
        <time>2020-06-01T17:13:02.850Z</time>
      </trkpt>
      <trkpt lat="50.47867" lon="3.408">
        <ele>17.783802</ele>
        <time>2020-06-01T17:13:06.985Z</time>
      </trkpt>
      <trkpt lat="50.47871" lon="3.40816">
        <ele>17.795073</ele>
        <time>2020-06-01T17:13:08.650Z</time>
      </trkpt>
      <trkpt lat="50.47888" lon="3.40869">
        <ele>17.83345</ele>
        <time>2020-06-01T17:13:14.406Z</time>
      </trkpt>
      <trkpt lat="50.47904" lon="3.40903">
        <ele>17.861602</ele>
        <time>2020-06-01T17:13:18.625Z</time>
      </trkpt>
      <trkpt lat="50.47935" lon="3.40945">
        <ele>17.959395</ele>
        <time>2020-06-01T17:13:24.784Z</time>
      </trkpt>
      <trkpt lat="50.47954" lon="3.40965">
        <ele>18.014601</ele>
        <time>2020-06-01T17:13:28.311Z</time>
      </trkpt>
      <trkpt lat="50.48073" lon="3.41064">
        <ele>18.414545</ele>
        <time>2020-06-01T17:13:49.677Z</time>
      </trkpt>
      <trkpt lat="50.48168" lon="3.41138">
        <ele>19.101381</ele>
        <time>2020-06-01T17:14:08.315Z</time>
      </trkpt>
      <trkpt lat="50.48216" lon="3.41154">
        <ele>19.415511</ele>
        <time>2020-06-01T17:14:17.337Z</time>
      </trkpt>
      <trkpt lat="50.48315" lon="3.41233">
        <ele>20.102707</ele>
        <time>2020-06-01T17:14:37.260Z</time>
      </trkpt>
      <trkpt lat="50.48367" lon="3.4127">
        <ele>20.463154</ele>
        <time>2020-06-01T17:14:46.998Z</time>
      </trkpt>
      <trkpt lat="50.48361" lon="3.41323">
        <ele>20.584664</ele>
        <time>2020-06-01T17:14:52.436Z</time>
      </trkpt>
      <trkpt lat="50.48335" lon="3.41557">
        <ele>20.681371</ele>
        <time>2020-06-01T17:15:15.056Z</time>
      </trkpt>
      <trkpt lat="50.48277" lon="3.41973">
        <ele>20.505339</ele>
        <time>2020-06-01T17:15:54.992Z</time>
      </trkpt>
      <trkpt lat="50.48265" lon="3.42058">
        <ele>20.418705</ele>
        <time>2020-06-01T17:16:02.746Z</time>
      </trkpt>
      <trkpt lat="50.48267" lon="3.42088">
        <ele>20.389222</ele>
        <time>2020-06-01T17:16:05.370Z</time>
      </trkpt>
      <trkpt lat="50.4827" lon="3.42108">
        <ele>20.368237</ele>
        <time>2020-06-01T17:16:07.227Z</time>
      </trkpt>
      <trkpt lat="50.48281" lon="3.42171">
        <ele>20.213828</ele>
        <time>2020-06-01T17:16:12.927Z</time>
      </trkpt>
      <trkpt lat="50.48282" lon="3.42212">
        <ele>20.087223</ele>
        <time>2020-06-01T17:16:16.574Z</time>
      </trkpt>
      <trkpt lat="50.48275" lon="3.42268">
        <ele>19.916453</ele>
        <time>2020-06-01T17:16:21.452Z</time>
      </trkpt>
      <trkpt lat="50.48243" lon="3.4251">
        <ele>19.156389</ele>
        <time>2020-06-01T17:16:42.002Z</time>
      </trkpt>
      <trkpt lat="50.48265" lon="3.42517">
        <ele>19.046613</ele>
        <time>2020-06-01T17:16:44.900Z</time>
      </trkpt>
      <trkpt lat="50.48298" lon="3.42533">
        <ele>18.873975</ele>
        <time>2020-06-01T17:16:49.535Z</time>
      </trkpt>
      <trkpt lat="50.48331" lon="3.42556">
        <ele>18.695245</ele>
        <time>2020-06-01T17:16:54.427Z</time>
      </trkpt>
      <trkpt lat="50.48364" lon="3.42603">
        <ele>18.592443</ele>
        <time>2020-06-01T17:17:00.615Z</time>
      </trkpt>
      <trkpt lat="50.48379" lon="3.42655">
        <ele>18.573128</ele>
        <time>2020-06-01T17:17:05.718Z</time>
      </trkpt>
      <trkpt lat="50.48391" lon="3.42733">
        <ele>18.545954</ele>
        <time>2020-06-01T17:17:13.347Z</time>
      </trkpt>
      <trkpt lat="50.48397" lon="3.4277">
        <ele>18.53289</ele>
        <time>2020-06-01T17:17:17.246Z</time>
      </trkpt>
      <trkpt lat="50.48404" lon="3.42822">
        <ele>18.515039</ele>
        <time>2020-06-01T17:17:22.331Z</time>
      </trkpt>
      <trkpt lat="50.48423" lon="3.42957">
        <ele>18.562613</ele>
        <time>2020-06-01T17:17:35.581Z</time>
      </trkpt>
      <trkpt lat="50.48426" lon="3.42971">
        <ele>18.568772</ele>
        <time>2020-06-01T17:17:37.057Z</time>
      </trkpt>
      <trkpt lat="50.48432" lon="3.43001">
        <ele>18.581804</ele>
        <time>2020-06-01T17:17:39.994Z</time>
      </trkpt>
      <trkpt lat="50.48438" lon="3.43022">
        <ele>18.591626</ele>
        <time>2020-06-01T17:17:42.143Z</time>
      </trkpt>
      <trkpt lat="50.48468" lon="3.43113">
        <ele>18.6567</ele>
        <time>2020-06-01T17:17:51.850Z</time>
      </trkpt>
      <trkpt lat="50.48503" lon="3.4319">
        <ele>18.850375</ele>
        <time>2020-06-01T17:18:01.267Z</time>
      </trkpt>
      <trkpt lat="50.48515" lon="3.43211">
        <ele>18.907764</ele>
        <time>2020-06-01T17:18:03.891Z</time>
      </trkpt>
      <trkpt lat="50.48516" lon="3.43213">
        <ele>18.915213</ele>
        <time>2020-06-01T17:18:04.459Z</time>
      </trkpt>
      <trkpt lat="50.48566" lon="3.43274">
        <ele>19.117556</ele>
        <time>2020-06-01T17:18:15.059Z</time>
      </trkpt>
      <trkpt lat="50.48614" lon="3.43307">
        <ele>19.334964</ele>
        <time>2020-06-01T17:18:24.048Z</time>
      </trkpt>
      <trkpt lat="50.48697" lon="3.4335">
        <ele>19.788408</ele>
        <time>2020-06-01T17:18:38.919Z</time>
      </trkpt>
      <trkpt lat="50.48714" lon="3.43358">
        <ele>19.881796</ele>
        <time>2020-06-01T17:18:41.922Z</time>
      </trkpt>
      <trkpt lat="50.48812" lon="3.43386">
        <ele>20.375031</ele>
        <time>2020-06-01T17:18:58.497Z</time>
      </trkpt>
      <trkpt lat="50.48835" lon="3.43392">
        <ele>20.487041</ele>
        <time>2020-06-01T17:19:02.305Z</time>
      </trkpt>
      <trkpt lat="50.48831" lon="3.43417">
        <ele>20.566591</ele>
        <time>2020-06-01T17:19:05.013Z</time>
      </trkpt>
      <trkpt lat="50.48777" lon="3.43508">
        <ele>20.935661</ele>
        <time>2020-06-01T17:19:18.194Z</time>
      </trkpt>
      <trkpt lat="50.48772" lon="3.4353">
        <ele>21.003809</ele>
        <time>2020-06-01T17:19:20.716Z</time>
      </trkpt>
      <trkpt lat="50.48774" lon="3.4355">
        <ele>21.065568</ele>
        <time>2020-06-01T17:19:23.128Z</time>
      </trkpt>
      <trkpt lat="50.48786" lon="3.43584">
        <ele>21.182288</ele>
        <time>2020-06-01T17:19:27.354Z</time>
      </trkpt>
      <trkpt lat="50.48793" lon="3.43602">
        <ele>21.245868</ele>
        <time>2020-06-01T17:19:29.787Z</time>
      </trkpt>
      <trkpt lat="50.488" lon="3.4362">
        <ele>21.308947</ele>
        <time>2020-06-01T17:19:31.976Z</time>
      </trkpt>
      <trkpt lat="50.48851" lon="3.4374">
        <ele>21.741094</ele>
        <time>2020-06-01T17:19:47.400Z</time>
      </trkpt>
      <trkpt lat="50.48863" lon="3.43769">
        <ele>21.828924</ele>
        <time>2020-06-01T17:19:50.847Z</time>
      </trkpt>
      <trkpt lat="50.48882" lon="3.43799">
        <ele>21.741285</ele>
        <time>2020-06-01T17:19:55.172Z</time>
      </trkpt>
      <trkpt lat="50.48907" lon="3.43837">
        <ele>21.627475</ele>
        <time>2020-06-01T17:20:00.514Z</time>
      </trkpt>
      <trkpt lat="50.48918" lon="3.43854">
        <ele>21.574823</ele>
        <time>2020-06-01T17:20:02.841Z</time>
      </trkpt>
      <trkpt lat="50.48944" lon="3.43891">
        <ele>21.462673</ele>
        <time>2020-06-01T17:20:07.459Z</time>
      </trkpt>
      <trkpt lat="50.48953" lon="3.43902">
        <ele>21.423644</ele>
        <time>2020-06-01T17:20:09.029Z</time>
      </trkpt>
      <trkpt lat="50.48981" lon="3.43937">
        <ele>21.306173</ele>
        <time>2020-06-01T17:20:13.526Z</time>
      </trkpt>
      <trkpt lat="50.48998" lon="3.43966">
        <ele>21.177821</ele>
        <time>2020-06-01T17:20:16.590Z</time>
      </trkpt>
      <trkpt lat="50.4902" lon="3.44022">
        <ele>20.757624</ele>
        <time>2020-06-01T17:20:21.700Z</time>
      </trkpt>
      <trkpt lat="50.49043" lon="3.44079">
        <ele>20.328817</ele>
        <time>2020-06-01T17:20:26.876Z</time>
      </trkpt>
      <trkpt lat="50.49109" lon="3.44183">
        <ele>19.419066</ele>
        <time>2020-06-01T17:20:38.181Z</time>
      </trkpt>
      <trkpt lat="50.49138" lon="3.44236">
        <ele>19.20395</ele>
        <time>2020-06-01T17:20:43.843Z</time>
      </trkpt>
      <trkpt lat="50.49167" lon="3.44324">
        <ele>18.902867</ele>
        <time>2020-06-01T17:20:52.296Z</time>
      </trkpt>
      <trkpt lat="50.49219" lon="3.44434">
        <ele>18.548735</ele>
        <time>2020-06-01T17:21:04.729Z</time>
      </trkpt>
      <trkpt lat="50.49227" lon="3.44464">
        <ele>18.514863</ele>
        <time>2020-06-01T17:21:07.811Z</time>
      </trkpt>
      <trkpt lat="50.49237" lon="3.44565">
        <ele>18.411342</ele>
        <time>2020-06-01T17:21:17.234Z</time>
      </trkpt>
      <trkpt lat="50.49254" lon="3.44618">
        <ele>18.350772</ele>
        <time>2020-06-01T17:21:22.667Z</time>
      </trkpt>
      <trkpt lat="50.49286" lon="3.44688">
        <ele>18.254181</ele>
        <time>2020-06-01T17:21:30.249Z</time>
      </trkpt>
      <trkpt lat="50.49301" lon="3.44709">
        <ele>18.211688</ele>
        <time>2020-06-01T17:21:33.031Z</time>
      </trkpt>
      <trkpt lat="50.49336" lon="3.44729">
        <ele>18.132612</ele>
        <time>2020-06-01T17:21:38.062Z</time>
      </trkpt>
      <trkpt lat="50.4934" lon="3.44731">
        <ele>18.124236</ele>
        <time>2020-06-01T17:21:38.558Z</time>
      </trkpt>
      <trkpt lat="50.49353" lon="3.4475">
        <ele>18.087181</ele>
        <time>2020-06-01T17:21:40.920Z</time>
      </trkpt>
      <trkpt lat="50.49359" lon="3.44758">
        <ele>18.06959</ele>
        <time>2020-06-01T17:21:42.105Z</time>
      </trkpt>
      <trkpt lat="50.49366" lon="3.44748">
        <ele>18.051117</ele>
        <time>2020-06-01T17:21:43.310Z</time>
      </trkpt>
      <trkpt lat="50.49368" lon="3.44744">
        <ele>18.044186</ele>
        <time>2020-06-01T17:21:43.772Z</time>
      </trkpt>
      <trkpt lat="50.4942" lon="3.44663">
        <ele>17.937165</ele>
        <time>2020-06-01T17:21:54.811Z</time>
      </trkpt>
      <trkpt lat="50.49426" lon="3.44654">
        <ele>17.951809</ele>
        <time>2020-06-01T17:21:55.920Z</time>
      </trkpt>
      <trkpt lat="50.49477" lon="3.44573">
        <ele>18.079612</ele>
        <time>2020-06-01T17:22:07.657Z</time>
      </trkpt>
      <trkpt lat="50.49491" lon="3.44561">
        <ele>18.107695</ele>
        <time>2020-06-01T17:22:10.561Z</time>
      </trkpt>
      <trkpt lat="50.49544" lon="3.44521">
        <ele>18.211048</ele>
        <time>2020-06-01T17:22:19.646Z</time>
      </trkpt>
      <trkpt lat="50.49562" lon="3.44503">
        <ele>18.178742</ele>
        <time>2020-06-01T17:22:22.958Z</time>
      </trkpt>
      <trkpt lat="50.4959" lon="3.44475">
        <ele>17.991792</ele>
        <time>2020-06-01T17:22:27.626Z</time>
      </trkpt>
      <trkpt lat="50.49648" lon="3.44404">
        <ele>17.56987</ele>
        <time>2020-06-01T17:22:37.357Z</time>
      </trkpt>
      <trkpt lat="50.49663" lon="3.44393">
        <ele>17.476615</ele>
        <time>2020-06-01T17:22:39.389Z</time>
      </trkpt>
      <trkpt lat="50.49669" lon="3.44396">
        <ele>17.44243</ele>
        <time>2020-06-01T17:22:40.154Z</time>
      </trkpt>
      <trkpt lat="50.49672" lon="3.44401">
        <ele>17.41668</ele>
        <time>2020-06-01T17:22:40.723Z</time>
      </trkpt>
      <trkpt lat="50.49674" lon="3.44405">
        <ele>17.39841</ele>
        <time>2020-06-01T17:22:41.053Z</time>
      </trkpt>
      <trkpt lat="50.49687" lon="3.44433">
        <ele>17.272631</ele>
        <time>2020-06-01T17:22:43.812Z</time>
      </trkpt>
      <trkpt lat="50.49735" lon="3.44569">
        <ele>16.433066</ele>
        <time>2020-06-01T17:22:55.602Z</time>
      </trkpt>
      <trkpt lat="50.49754" lon="3.44626">
        <ele>16.070502</ele>
        <time>2020-06-01T17:23:00.662Z</time>
      </trkpt>
      <trkpt lat="50.49776" lon="3.4469">
        <ele>15.661706</ele>
        <time>2020-06-01T17:23:06.825Z</time>
      </trkpt>
      <trkpt lat="50.49798" lon="3.44759">
        <ele>15.718261</ele>
        <time>2020-06-01T17:23:13.599Z</time>
      </trkpt>
      <trkpt lat="50.49799" lon="3.44762">
        <ele>15.723044</ele>
        <time>2020-06-01T17:23:13.988Z</time>
      </trkpt>
      <trkpt lat="50.49844" lon="3.44889">
        <ele>15.938886</ele>
        <time>2020-06-01T17:23:28.438Z</time>
      </trkpt>
      <trkpt lat="50.49851" lon="3.44909">
        <ele>15.974156</ele>
        <time>2020-06-01T17:23:31.182Z</time>
      </trkpt>
      <trkpt lat="50.49853" lon="3.44914">
        <ele>15.982727</ele>
        <time>2020-06-01T17:23:31.809Z</time>
      </trkpt>
      <trkpt lat="50.49864" lon="3.44939">
        <ele>16.027978</ele>
        <time>2020-06-01T17:23:35.345Z</time>
      </trkpt>
      <trkpt lat="50.49867" lon="3.44946">
        <ele>16.049485</ele>
        <time>2020-06-01T17:23:36.370Z</time>
      </trkpt>
      <trkpt lat="50.49874" lon="3.44964">
        <ele>16.150984</ele>
        <time>2020-06-01T17:23:39.049Z</time>
      </trkpt>
      <trkpt lat="50.49935" lon="3.45106">
        <ele>16.966401</ele>
        <time>2020-06-01T17:23:59.782Z</time>
      </trkpt>
      <trkpt lat="50.49943" lon="3.45125">
        <ele>17.078407</ele>
        <time>2020-06-01T17:24:02.326Z</time>
      </trkpt>
      <trkpt lat="50.49958" lon="3.45159">
        <ele>17.273876</ele>
        <time>2020-06-01T17:24:06.447Z</time>
      </trkpt>
      <trkpt lat="50.49974" lon="3.45177">
        <ele>17.385415</ele>
        <time>2020-06-01T17:24:09.600Z</time>
      </trkpt>
      <trkpt lat="50.49999" lon="3.45188">
        <ele>17.385041</ele>
        <time>2020-06-01T17:24:13.242Z</time>
      </trkpt>
      <trkpt lat="50.50005" lon="3.45189">
        <ele>17.384945</ele>
        <time>2020-06-01T17:24:14.281Z</time>
      </trkpt>
      <trkpt lat="50.50005" lon="3.45189">
        <ele>17.384945</ele>
        <time>2020-06-01T17:24:14.283Z</time>
      </trkpt>
      <trkpt lat="50.50044" lon="3.45199">
        <ele>17.384354</ele>
        <time>2020-06-01T17:24:20.438Z</time>
      </trkpt>
      <trkpt lat="50.50051" lon="3.45202">
        <ele>17.384249</ele>
        <time>2020-06-01T17:24:21.492Z</time>
      </trkpt>
      <trkpt lat="50.50052" lon="3.45203">
        <ele>17.384224</ele>
        <time>2020-06-01T17:24:21.747Z</time>
      </trkpt>
      <trkpt lat="50.50084" lon="3.45223">
        <ele>17.383708</ele>
        <time>2020-06-01T17:24:27.007Z</time>
      </trkpt>
      <trkpt lat="50.50092" lon="3.45227">
        <ele>17.383582</ele>
        <time>2020-06-01T17:24:28.221Z</time>
      </trkpt>
      <trkpt lat="50.5013" lon="3.45249">
        <ele>17.382982</ele>
        <time>2020-06-01T17:24:33.708Z</time>
      </trkpt>
      <trkpt lat="50.50142" lon="3.45258">
        <ele>17.385576</ele>
        <time>2020-06-01T17:24:35.598Z</time>
      </trkpt>
      <trkpt lat="50.50193" lon="3.45294">
        <ele>17.500728</ele>
        <time>2020-06-01T17:24:43.152Z</time>
      </trkpt>
      <trkpt lat="50.50229" lon="3.45322">
        <ele>17.581729</ele>
        <time>2020-06-01T17:24:48.873Z</time>
      </trkpt>
      <trkpt lat="50.5031" lon="3.45386">
        <ele>17.796812</ele>
        <time>2020-06-01T17:25:05.334Z</time>
      </trkpt>
      <trkpt lat="50.50341" lon="3.45413">
        <ele>17.994551</ele>
        <time>2020-06-01T17:25:11.389Z</time>
      </trkpt>
      <trkpt lat="50.50355" lon="3.45425">
        <ele>18.083834</ele>
        <time>2020-06-01T17:25:14.005Z</time>
      </trkpt>
      <trkpt lat="50.50407" lon="3.45459">
        <ele>18.396399</ele>
        <time>2020-06-01T17:25:23.356Z</time>
      </trkpt>
      <trkpt lat="50.50416" lon="3.45464">
        <ele>18.452078</ele>
        <time>2020-06-01T17:25:25.023Z</time>
      </trkpt>
      <trkpt lat="50.50444" lon="3.45482">
        <ele>18.618139</ele>
        <time>2020-06-01T17:25:30.172Z</time>
      </trkpt>
      <trkpt lat="50.50447" lon="3.4549">
        <ele>18.651744</ele>
        <time>2020-06-01T17:25:31.175Z</time>
      </trkpt>
      <trkpt lat="50.50448" lon="3.45508">
        <ele>18.717585</ele>
        <time>2020-06-01T17:25:33.142Z</time>
      </trkpt>
      <trkpt lat="50.50443" lon="3.45552">
        <ele>18.852633</ele>
        <time>2020-06-01T17:25:38.208Z</time>
      </trkpt>
      <trkpt lat="50.50441" lon="3.45568">
        <ele>18.900264</ele>
        <time>2020-06-01T17:25:39.890Z</time>
      </trkpt>
      <trkpt lat="50.50441" lon="3.45573">
        <ele>18.915237</ele>
        <time>2020-06-01T17:25:40.422Z</time>
      </trkpt>
      <trkpt lat="50.5044" lon="3.45588">
        <ele>18.960052</ele>
        <time>2020-06-01T17:25:42.271Z</time>
      </trkpt>
      <trkpt lat="50.50437" lon="3.45631">
        <ele>19.087254</ele>
        <time>2020-06-01T17:25:46.597Z</time>
      </trkpt>
      <trkpt lat="50.50436" lon="3.45642">
        <ele>19.119423</ele>
        <time>2020-06-01T17:25:47.986Z</time>
      </trkpt>
      <trkpt lat="50.50433" lon="3.4572">
        <ele>19.345657</ele>
        <time>2020-06-01T17:25:55.994Z</time>
      </trkpt>
      <trkpt lat="50.50424" lon="3.45772">
        <ele>19.503807</ele>
        <time>2020-06-01T17:26:01.665Z</time>
      </trkpt>
      <trkpt lat="50.5041" lon="3.45851">
        <ele>19.738024</ele>
        <time>2020-06-01T17:26:10.241Z</time>
      </trkpt>
      <trkpt lat="50.50361" lon="3.46074">
        <ele>20.397249</ele>
        <time>2020-06-01T17:26:35.499Z</time>
      </trkpt>
      <trkpt lat="50.50345" lon="3.46155">
        <ele>20.547331</ele>
        <time>2020-06-01T17:26:44.352Z</time>
      </trkpt>
      <trkpt lat="50.50335" lon="3.46236">
        <ele>20.69324</ele>
        <time>2020-06-01T17:26:52.567Z</time>
      </trkpt>
      <trkpt lat="50.50325" lon="3.46304">
        <ele>20.817892</ele>
        <time>2020-06-01T17:26:59.618Z</time>
      </trkpt>
      <trkpt lat="50.50317" lon="3.46374">
        <ele>20.882018</ele>
        <time>2020-06-01T17:27:06.665Z</time>
      </trkpt>
      <trkpt lat="50.50313" lon="3.46411">
        <ele>20.882018</ele>
        <time>2020-06-01T17:27:10.153Z</time>
      </trkpt>
      <trkpt lat="50.50316" lon="3.46422">
        <ele>20.882018</ele>
        <time>2020-06-01T17:27:11.399Z</time>
      </trkpt>
      <trkpt lat="50.5034" lon="3.46438">
        <ele>20.882018</ele>
        <time>2020-06-01T17:27:15.221Z</time>
      </trkpt>
      <trkpt lat="50.50361" lon="3.46454">
        <ele>20.882018</ele>
        <time>2020-06-01T17:27:18.610Z</time>
      </trkpt>
      <trkpt lat="50.50361" lon="3.46454">
        <ele>20.882018</ele>
        <time>2020-06-01T17:27:18.673Z</time>
      </trkpt>
    </trkseg>
  </trk>
</gpx>